BA455 / G-EUYL 7700 Squawk Report (23rd of May, 2019)

Aircraft A320 Reg No. G-EUYL Age 8 years old
Model A320 Jet engines 2 First flight 18-05-11
Registered 01-06-11 Rollout N/A Delivered 01-06-11
Construction No. 4725 Line No. N/A Series 232
ADSHEX 406531 Airline name British Airways Owner N/A
Airfield based Heathrow~Gtr London~G First tracked 2017-07-13 08:20:00

Flight history for G-EUYL

Route Flight No Date Playback
Heathrow (LHR) - Budapest Ferenc Liszt (BUD) BA870 2019-06-26 22:41:00
Barcelona–El Prat (BCN) - Heathrow (LHR) BA481 2019-06-26 19:15:00
Heathrow (LHR) - Barcelona–El Prat (BCN) BA480 2019-06-26 16:09:00
Pisa (PSA) - Heathrow (LHR) BA605 2019-06-26 13:48:00
Heathrow (LHR) - Pisa (PSA) BA604 2019-06-26 10:45:00
Budapest Ferenc Liszt (BUD) - Heathrow (LHR) BA875 2019-06-26 07:33:00
Heathrow (LHR) - Budapest Ferenc Liszt (BUD) BA874 2019-06-25 17:45:00
Lisbon (LIS) - Heathrow (LHR) BA501 2019-06-25 15:07:00
Heathrow (LHR) - Lisbon (LIS) BA500 2019-06-25 10:23:00
Lisbon (LIS) - Heathrow (LHR) BA503 2019-06-24 20:10:00
Heathrow (LHR) - Lisbon (LIS) BA502 2019-06-24 18:07:00
Lisbon (LIS) - Heathrow (LHR) BA501 2019-06-24 14:33:00
Heathrow (LHR) - Lisbon (LIS) BA500 2019-06-24 10:48:00
Pisa (PSA) - Heathrow (LHR) BA607 2019-06-24 06:57:00
Heathrow (LHR) - Pisa (PSA) BA606 2019-06-23 17:30:00
Budapest Ferenc Liszt (BUD) - Heathrow (LHR) BA867 2019-06-23 13:45:00
Heathrow (LHR) - Budapest Ferenc Liszt (BUD) BA866 2019-06-23 10:17:00
Václav Havel Airport Prague (PRG) - Heathrow (LHR) BA853 2019-06-23 06:44:00
Heathrow (LHR) - Václav Havel Airport Prague (PRG) BA858 2019-06-22 21:05:00
Provence (MRS) - Heathrow (LHR) BA369 2019-06-22 19:16:00
Time Lat Lon Altitude Heading Speed Vertical Rate
2019-05-23 21:47:16 GMT 51.469398 -0.485725 0 0 2 0
2019-05-23 21:47:08 GMT 51.469387 -0.485725 0 0 2 0
2019-05-23 21:47:05 GMT 51.469376 -0.485725 0 0 3 0
We lost coverage of the aircraft here for a total of 6 minutes
2019-05-23 21:40:49 GMT 51.477676 -0.431139 0 267 2 0
2019-05-23 21:40:49 GMT 51.477676 -0.431139 0 180 8 0
2019-05-23 21:40:49 GMT 51.477676 -0.431139 0 180 22 0
2019-05-23 21:41:40 GMT 51.477558 -0.466747 0 180 22 0
2019-05-23 21:41:40 GMT 51.477558 -0.466747 0 270 53 0
2019-05-23 21:41:28 GMT 51.477596 -0.461222 0 270 68 0
2019-05-23 21:41:20 GMT 51.477604 -0.457039 0 270 82 0
2019-05-23 21:41:16 GMT 51.477631 -0.446524 0 270 129 0
2019-05-23 21:41:05 GMT 51.477654 -0.442961 0 270 130 0
2019-05-23 21:41:01 GMT 51.477654 -0.442961 0 270 130 0
2019-05-23 21:40:55 GMT 51.477676 -0.437300 25 270 130 -320
2019-05-23 21:40:49 GMT 51.477676 -0.431139 100 270 129 -640
2019-05-23 21:40:45 GMT 51.477676 -0.423864 225 270 129 -640
2019-05-23 21:40:41 GMT 51.477676 -0.423864 175 270 129 -704
2019-05-23 21:40:38 GMT 51.477695 -0.420685 225 270 129 -704
2019-05-23 21:40:34 GMT 51.477768 -0.413992 275 270 127 -640
2019-05-23 21:40:31 GMT 51.477768 -0.413992 300 270 126 -640
2019-05-23 21:40:27 GMT 51.477768 -0.410280 350 270 126 -640
2019-05-23 21:40:24 GMT 51.477768 -0.407682 350 270 126 -704
2019-05-23 21:40:20 GMT 51.477768 -0.403970 425 270 125 -640
2019-05-23 21:40:17 GMT 51.477791 -0.400848 450 270 125 -704
2019-05-23 21:40:14 GMT 51.477768 -0.398032 500 270 125 -704
2019-05-23 21:40:11 GMT 51.477768 -0.395062 550 270 125 -640
2019-05-23 21:40:08 GMT 51.477814 -0.392093 550 270 134 -896
2019-05-23 21:40:04 GMT 51.477791 -0.389328 650 270 125 -640
2019-05-23 21:40:01 GMT 51.477791 -0.385666 625 270 126 -640
2019-05-23 21:39:58 GMT 51.477814 -0.383556 650 270 126 -704
2019-05-23 21:39:55 GMT 51.477837 -0.380402 675 270 125 -576
2019-05-23 21:39:52 GMT 51.477859 -0.377989 750 270 126 -704
2019-05-23 21:39:48 GMT 51.477837 -0.374069 825 270 126 -640
2019-05-23 21:39:44 GMT 51.477882 -0.370331 825 270 125 -640
2019-05-23 21:39:41 GMT 51.477905 -0.363514 875 270 125 -576
2019-05-23 21:39:37 GMT 51.477905 -0.363514 900 270 125 -576
2019-05-23 21:39:31 GMT 51.477882 -0.358505 950 270 129 -704
2019-05-23 21:39:28 GMT 51.477905 -0.355719 950 270 129 -704
2019-05-23 21:39:25 GMT 51.477905 -0.352750 975 270 126 -576
2019-05-23 21:39:21 GMT 51.477905 -0.349410 1,025 270 129 -704
2019-05-23 21:39:18 GMT 51.477928 -0.346146 1,075 270 131 -832
2019-05-23 21:39:14 GMT 51.477951 -0.342432 1,075 270 132 -832
2019-05-23 21:39:11 GMT 51.477928 -0.339813 1,150 270 136 -960
2019-05-23 21:39:08 GMT 51.477951 -0.336419 1,225 270 138 -1024
2019-05-23 21:39:04 GMT 51.477951 -0.332708 1,275 270 140 -1024
2019-05-23 21:39:01 GMT 51.477978 -0.329132 1,300 270 143 -832
2019-05-23 21:38:58 GMT 51.477997 -0.325878 1,350 270 148 -576
2019-05-23 21:38:54 GMT 51.477997 -0.321499 1,700 270 159 -832
2019-05-23 21:38:51 GMT 51.477978 -0.318069 1,425 270 157 -832
2019-05-23 21:38:48 GMT 51.478024 -0.311127 1,475 270 157 -832
2019-05-23 21:38:45 GMT 51.478024 -0.311127 1,500 270 158 -832
2019-05-23 21:38:41 GMT 51.478024 -0.306015 1,700 270 159 -832
2019-05-23 21:38:38 GMT 51.478024 -0.298004 1,625 270 159 -832
2019-05-23 21:38:34 GMT 51.478024 -0.298004 1,650 270 160 -896
2019-05-23 21:38:30 GMT 51.478024 -0.293732 1,950 271 161 -896
2019-05-23 21:38:27 GMT 51.477997 -0.290098 1,725 271 161 -896
2019-05-23 21:38:24 GMT 51.478024 -0.286560 1,800 271 162 -896
2019-05-23 21:38:20 GMT 51.477951 -0.281488 1,900 272 162 -896
2019-05-23 21:38:17 GMT 51.477905 -0.276662 2,325 271 163 -896
2019-05-23 21:38:14 GMT 51.477905 -0.274287 1,950 271 164 -896
2019-05-23 21:38:11 GMT 51.477882 -0.270615 2,000 271 164 -896
2019-05-23 21:38:08 GMT 51.477837 -0.266724 2,050 272 165 -896
2019-05-23 21:38:05 GMT 51.477814 -0.263078 2,075 272 167 -896
2019-05-23 21:38:01 GMT 51.477768 -0.258698 2,200 272 166 -896
2019-05-23 21:37:57 GMT 51.477631 -0.248306 2,325 272 170 -832
2019-05-23 21:37:54 GMT 51.477631 -0.248306 2,275 272 169 -832
2019-05-23 21:37:51 GMT 51.477604 -0.246048 2,300 272 169 -832
2019-05-23 21:37:48 GMT 51.477585 -0.241848 2,325 272 170 -832
2019-05-23 21:37:45 GMT 51.477539 -0.239324 2,375 273 170 -832
2019-05-23 21:37:42 GMT 51.477402 -0.234796 2,375 274 170 -832
2019-05-23 21:37:39 GMT 51.476898 -0.227224 2,475 284 173 -512
2019-05-23 21:37:36 GMT 51.476440 -0.223215 2,475 282 172 -576
2019-05-23 21:37:33 GMT 51.476440 -0.223215 2,525 287 175 -768
2019-05-23 21:37:30 GMT 51.475883 -0.219955 2,550 287 175 -768
2019-05-23 21:37:27 GMT 51.475185 -0.215988 2,675 287 180 -1344
2019-05-23 21:37:24 GMT 51.474300 -0.211411 2,750 287 179 -1280
2019-05-23 21:37:21 GMT 51.472916 -0.203989 2,750 287 181 -1600
2019-05-23 21:37:18 GMT 51.472202 -0.200119 2,825 287 182 -1792
2019-05-23 21:37:12 GMT 51.471226 -0.194931 2,975 287 182 -1920
2019-05-23 21:37:08 GMT 51.470573 -0.191269 3,075 287 182 -1984
2019-05-23 21:37:05 GMT 51.469875 -0.187683 3,150 288 183 -1920
2019-05-23 21:37:02 GMT 51.469177 -0.184021 3,250 288 183 -1856
2019-05-23 21:36:59 GMT 51.468155 -0.178602 3,325 288 183 -1664
2019-05-23 21:36:56 GMT 51.467606 -0.176004 3,475 290 184 -1664
2019-05-23 21:36:53 GMT 51.466736 -0.171921 3,475 290 184 -1664
2019-05-23 21:36:50 GMT 51.464676 -0.163756 3,675 302 185 -1920
2019-05-23 21:36:47 GMT 51.464676 -0.163756 3,750 302 185 -1920
2019-05-23 21:36:44 GMT 51.463593 -0.160599 3,775 302 185 -1920
2019-05-23 21:36:41 GMT 51.462158 -0.157223 4,275 359 184 -1984
2019-05-23 21:36:38 GMT 51.460472 -0.154190 4,000 322 185 -2048
2019-05-23 21:36:35 GMT 51.458378 -0.151367 4,125 330 184 -2048
2019-05-23 21:36:32 GMT 51.454189 -0.147705 4,200 335 184 -2048
2019-05-23 21:36:29 GMT 51.454189 -0.147705 4,525 359 185 -1088
2019-05-23 21:36:26 GMT 51.451401 -0.146311 4,450 351 184 -2112
2019-05-23 21:36:23 GMT 51.448231 -0.145569 4,450 353 184 -2112
2019-05-23 21:36:20 GMT 51.446507 -0.145416 4,575 359 184 -1856
2019-05-23 21:36:17 GMT 51.443806 -0.145340 4,775 359 228 -896
2019-05-23 21:36:14 GMT 51.441238 -0.145198 4,775 359 184 -1536
2019-05-23 21:36:10 GMT 51.437485 -0.145049 4,875 359 187 -576
2019-05-23 21:36:07 GMT 51.435059 -0.144975 4,900 359 190 -128
2019-05-23 21:36:04 GMT 51.432953 -0.144901 4,900 359 193 0
2019-05-23 21:36:01 GMT 51.430214 -0.144806 4,900 359 200 -320
2019-05-23 21:35:58 GMT 51.424629 -0.144577 4,925 359 205 -384
2019-05-23 21:35:55 GMT 51.424629 -0.144577 4,950 359 209 -384
2019-05-23 21:35:52 GMT 51.420959 -0.144455 4,950 359 209 -384
2019-05-23 21:35:49 GMT 51.418434 -0.144348 4,975 359 215 -384
2019-05-23 21:35:46 GMT 51.415100 -0.144158 5,000 359 215 -384
2019-05-23 21:35:43 GMT 51.412720 -0.144010 5,000 359 218 -448
2019-05-23 21:35:40 GMT 51.409882 -0.143862 5,100 359 226 -832
2019-05-23 21:35:37 GMT 51.405960 -0.143661 5,075 359 225 -832
2019-05-23 21:35:34 GMT 51.402420 -0.143565 5,125 359 226 -896
2019-05-23 21:35:31 GMT 51.400360 -0.143490 5,125 359 228 -896
2019-05-23 21:35:28 GMT 51.396973 -0.143342 5,175 0 231 -896
2019-05-23 21:35:24 GMT 51.392670 -0.143416 5,250 0 233 -896
2019-05-23 21:35:21 GMT 51.389648 -0.143565 5,325 2 235 -896
2019-05-23 21:35:18 GMT 51.386826 -0.143814 5,350 4 235 -896
2019-05-23 21:35:15 GMT 51.380127 -0.145792 5,425 19 241 -1088
2019-05-23 21:35:12 GMT 51.380127 -0.145792 5,450 21 241 -1088
2019-05-23 21:35:09 GMT 51.376537 -0.147858 5,500 27 244 -1344
2019-05-23 21:35:06 GMT 51.373745 -0.150070 5,650 37 245 -1984
2019-05-23 21:35:03 GMT 51.370880 -0.152992 6,100 35 245 -1920
2019-05-23 21:35:00 GMT 51.368160 -0.156326 5,925 42 244 -1792
2019-05-23 21:34:57 GMT 51.362961 -0.163904 5,925 42 246 -1664
2019-05-23 21:34:51 GMT 51.359985 -0.168358 6,025 42 246 -1600
2019-05-23 21:34:48 GMT 51.357971 -0.171327 6,075 42 247 -1600
2019-05-23 21:34:45 GMT 51.355450 -0.175018 6,175 42 248 -1600
2019-05-23 21:34:42 GMT 51.353401 -0.178070 6,175 42 249 -1664
2019-05-23 21:34:39 GMT 51.350376 -0.182571 6,875 44 261 -1536
2019-05-23 21:34:35 GMT 51.347351 -0.187149 6,375 43 251 -1472
2019-05-23 21:34:32 GMT 51.344978 -0.190659 6,450 43 253 -1344
2019-05-23 21:34:29 GMT 51.339855 -0.198441 6,550 43 255 -1280
2019-05-23 21:34:23 GMT 51.336227 -0.203989 6,700 43 258 -1216
2019-05-23 21:34:20 GMT 51.333992 -0.207443 6,725 44 260 -1216
2019-05-23 21:34:17 GMT 51.331055 -0.211932 6,800 44 260 -1344
2019-05-23 21:34:14 GMT 51.329147 -0.214920 6,825 44 261 -1472
2019-05-23 21:34:11 GMT 51.326202 -0.219504 6,900 44 262 -1728
2019-05-23 21:34:08 GMT 51.320984 -0.227595 7,075 44 263 -1536
2019-05-23 21:34:05 GMT 51.320984 -0.227595 7,150 44 264 -1344
2019-05-23 21:34:02 GMT 51.318558 -0.231381 7,175 44 264 -1280
2019-05-23 21:33:59 GMT 51.315765 -0.235761 7,275 44 268 -1024
2019-05-23 21:33:56 GMT 51.313293 -0.239621 7,300 44 269 -960
2019-05-23 21:33:53 GMT 51.310295 -0.244370 7,325 44 270 -960
2019-05-23 21:33:50 GMT 51.307983 -0.248083 7,400 44 273 -1152
2019-05-23 21:33:47 GMT 51.306011 -0.251160 7,425 45 275 -1280
2019-05-23 21:33:44 GMT 51.302753 -0.256424 7,525 45 277 -1472
2019-05-23 21:33:41 GMT 51.300240 -0.260468 7,625 45 280 -1152
2019-05-23 21:33:38 GMT 51.297680 -0.264587 7,675 45 280 -1088
2019-05-23 21:33:35 GMT 51.293839 -0.270798 7,700 45 283 -832
2019-05-23 21:33:32 GMT 51.291069 -0.275269 7,725 45 285 -768
2019-05-23 21:33:29 GMT 51.288986 -0.278592 7,775 45 290 -768
2019-05-23 21:33:26 GMT 51.285965 -0.283492 7,825 45 294 -960
2019-05-23 21:33:23 GMT 51.283264 -0.287797 7,875 44 297 -1216
2019-05-23 21:33:20 GMT 51.280518 -0.292177 7,900 45 298 -1280
2019-05-23 21:33:17 GMT 51.278183 -0.295889 8,000 44 300 -1472
2019-05-23 21:33:14 GMT 51.273788 -0.302792 8,075 44 304 -1344
2019-05-23 21:33:11 GMT 51.271820 -0.305984 8,200 44 304 -1408
2019-05-23 21:33:08 GMT 51.268398 -0.311356 8,200 44 305 -1472
2019-05-23 21:33:03 GMT 51.262985 -0.319865 8,325 44 306 -1536
2019-05-23 21:33:00 GMT 51.260559 -0.323726 8,375 44 307 -1536
2019-05-23 21:32:57 GMT 51.256943 -0.329441 8,575 44 308 -1856
2019-05-23 21:32:54 GMT 51.253693 -0.334563 8,550 45 308 -1536
2019-05-23 21:32:51 GMT 51.251266 -0.338423 8,650 45 308 -1600
2019-05-23 21:32:48 GMT 51.245224 -0.348074 8,975 44 308 -1792
2019-05-23 21:32:45 GMT 51.245224 -0.348074 8,925 44 308 -1920
2019-05-23 21:32:42 GMT 51.242191 -0.352859 8,900 44 309 -1664
2019-05-23 21:32:39 GMT 51.239136 -0.357650 8,950 44 308 -1856
2019-05-23 21:32:36 GMT 51.236298 -0.362103 9,250 44 308 -1728
2019-05-23 21:32:33 GMT 51.233047 -0.367225 9,125 44 308 -1728
2019-05-23 21:32:30 GMT 51.229797 -0.372273 9,225 44 308 -1728
2019-05-23 21:32:27 GMT 51.223709 -0.381849 9,375 44 308 -1728
2019-05-23 21:32:24 GMT 51.220047 -0.387565 9,475 44 309 -1664
2019-05-23 21:32:21 GMT 51.220047 -0.387565 9,575 44 309 -1600
2019-05-23 21:32:18 GMT 51.217987 -0.390757 9,575 44 324 -832
2019-05-23 21:32:15 GMT 51.214539 -0.396118 9,700 44 309 -1472
2019-05-23 21:32:12 GMT 51.211651 -0.400620 9,800 44 310 -1408
2019-05-23 21:32:09 GMT 51.208145 -0.406049 9,800 44 311 -1344
2019-05-23 21:32:06 GMT 51.205086 -0.410843 9,875 44 311 -1216
2019-05-23 21:32:03 GMT 51.201782 -0.415955 9,900 44 313 -1088
2019-05-23 21:32:00 GMT 51.198429 -0.421143 10,000 44 315 -960
2019-05-23 21:31:57 GMT 51.195740 -0.425349 10,275 44 324 -832
2019-05-23 21:31:54 GMT 51.192986 -0.429611 10,075 44 318 -768
2019-05-23 21:31:51 GMT 51.189835 -0.434480 10,125 44 321 -768
2019-05-23 21:31:48 GMT 51.186401 -0.439750 10,150 44 323 -768
2019-05-23 21:31:45 GMT 51.183628 -0.444107 10,175 44 324 -832
2019-05-23 21:31:42 GMT 51.179298 -0.450745 10,250 44 327 -832
2019-05-23 21:31:39 GMT 51.176689 -0.454788 10,325 44 331 -960
2019-05-23 21:31:36 GMT 51.169243 -0.466309 10,375 44 333 -960
2019-05-23 21:31:33 GMT 51.169243 -0.466309 10,450 44 334 -1024
2019-05-23 21:31:30 GMT 51.167007 -0.469742 10,400 44 338 -1024
2019-05-23 21:31:27 GMT 51.163471 -0.475235 10,450 44 336 -1024
2019-05-23 21:31:24 GMT 51.160538 -0.479687 10,525 44 339 -1024
2019-05-23 21:31:21 GMT 51.156719 -0.485611 10,575 44 340 -960
2019-05-23 21:31:17 GMT 51.151474 -0.493642 10,650 43 345 -896
2019-05-23 21:31:14 GMT 51.148727 -0.497874 10,675 43 345 -832
2019-05-23 21:31:11 GMT 51.143406 -0.505981 10,700 43 347 -896
2019-05-23 21:31:08 GMT 51.142010 -0.508118 10,750 43 350 -960
2019-05-23 21:31:05 GMT 51.138237 -0.513840 10,850 43 356 -1472
2019-05-23 21:31:02 GMT 51.130650 -0.525360 11,075 43 357 -1920
2019-05-23 21:30:59 GMT 51.130650 -0.525360 11,075 43 357 -1920
2019-05-23 21:30:56 GMT 51.128231 -0.528946 11,000 43 357 -2112
2019-05-23 21:30:53 GMT 51.124146 -0.535138 11,100 43 358 -2112
2019-05-23 21:30:50 GMT 51.120804 -0.540186 11,225 43 358 -2112
2019-05-23 21:30:47 GMT 51.115753 -0.547867 11,400 43 360 -2176
2019-05-23 21:30:44 GMT 51.112610 -0.552583 11,450 43 360 -2304
2019-05-23 21:30:41 GMT 51.109726 -0.556962 11,600 43 360 -2624
2019-05-23 21:30:38 GMT 51.106583 -0.561752 11,650 43 360 -2624
2019-05-23 21:30:35 GMT 51.101788 -0.569077 11,750 43 360 -2880
2019-05-23 21:30:32 GMT 51.098648 -0.573813 11,900 43 360 -3072
2019-05-23 21:30:29 GMT 51.094620 -0.579987 12,525 43 355 -2688
2019-05-23 21:30:26 GMT 51.091732 -0.584259 12,750 43 355 -3200
2019-05-23 21:30:23 GMT 51.087963 -0.590057 12,425 43 355 -2880
2019-05-23 21:30:20 GMT 51.084869 -0.594746 12,625 43 359 0
2019-05-23 21:30:17 GMT 51.080109 -0.601873 12,850 43 354 -1664
2019-05-23 21:30:14 GMT 51.077534 -0.605850 12,900 43 355 -832
2019-05-23 21:30:11 GMT 51.073013 -0.612710 12,875 43 355 -1024
2019-05-23 21:30:08 GMT 51.069946 -0.617371 12,900 43 355 -832
2019-05-23 21:30:04 GMT 51.065662 -0.623932 12,975 43 357 -320
2019-05-23 21:30:01 GMT 51.061615 -0.630155 12,975 43 358 -192
2019-05-23 21:29:58 GMT 51.059235 -0.633792 13,000 43 359 -64
2019-05-23 21:29:55 GMT 51.051327 -0.645828 13,000 43 359 0
2019-05-23 21:29:49 GMT 51.043442 -0.657918 13,000 43 359 0
2019-05-23 21:29:46 GMT 51.043442 -0.657918 13,000 43 359 0
2019-05-23 21:29:43 GMT 51.040558 -0.662297 13,000 43 359 0
2019-05-23 21:29:40 GMT 51.036522 -0.668564 13,000 43 359 0
2019-05-23 21:29:37 GMT 51.032703 -0.674438 13,000 44 360 0
2019-05-23 21:29:34 GMT 51.029819 -0.678864 13,000 44 360 0
2019-05-23 21:29:31 GMT 51.025490 -0.685501 13,000 44 362 0
2019-05-23 21:29:28 GMT 51.018784 -0.695877 13,000 44 362 0
2019-05-23 21:29:25 GMT 51.018784 -0.695877 13,000 44 362 -64
2019-05-23 21:29:22 GMT 51.015244 -0.701418 13,000 44 362 -64
2019-05-23 21:29:19 GMT 51.011150 -0.707779 13,000 44 363 0
2019-05-23 21:29:16 GMT 51.007553 -0.713369 13,000 44 363 0
2019-05-23 21:29:13 GMT 51.004715 -0.717823 13,000 44 363 -64
2019-05-23 21:29:10 GMT 51.000412 -0.724578 13,000 44 363 -64
2019-05-23 21:29:07 GMT 50.997276 -0.729446 13,000 44 363 -64
2019-05-23 21:29:04 GMT 50.993729 -0.734971 13,000 44 362 0
2019-05-23 21:29:01 GMT 50.990620 -0.739822 13,000 44 363 0
2019-05-23 21:28:58 GMT 50.986038 -0.746922 13,000 43 363 0
2019-05-23 21:28:55 GMT 50.982651 -0.752044 13,000 43 364 0
2019-05-23 21:28:52 GMT 50.979496 -0.756836 13,000 43 364 0
2019-05-23 21:28:49 GMT 50.976006 -0.761871 13,000 42 365 -64
2019-05-23 21:28:46 GMT 50.972214 -0.767261 13,000 41 366 -128
2019-05-23 21:28:43 GMT 50.968094 -0.772829 13,025 40 368 -384
2019-05-23 21:28:40 GMT 50.960083 -0.782924 13,050 37 371 -832
2019-05-23 21:28:37 GMT 50.960083 -0.782924 13,100 36 372 -1024
2019-05-23 21:28:34 GMT 50.955379 -0.788498 14,050 31 371 -1408
2019-05-23 21:28:31 GMT 50.951984 -0.792236 13,225 32 371 -1472
2019-05-23 21:28:28 GMT 50.947678 -0.796657 13,225 33 371 -1408
2019-05-23 21:28:24 GMT 50.939529 -0.804674 13,375 31 371 -1408
2019-05-23 21:28:21 GMT 50.937149 -0.806975 13,400 31 371 -1472
2019-05-23 21:28:18 GMT 50.933361 -0.810623 13,500 31 371 -1408
2019-05-23 21:28:15 GMT 50.928955 -0.814918 13,550 31 372 -1344
2019-05-23 21:28:12 GMT 50.919258 -0.824203 13,650 31 372 -1344
2019-05-23 21:28:09 GMT 50.919258 -0.824203 13,725 31 372 -1216
2019-05-23 21:28:06 GMT 50.916046 -0.827315 13,750 31 373 -1216
2019-05-23 21:28:03 GMT 50.911926 -0.831324 13,800 31 378 -960
2019-05-23 21:28:00 GMT 50.904499 -0.838470 13,900 31 376 -1088
2019-05-23 21:27:57 GMT 50.903046 -0.839860 13,900 31 376 -1088
2019-05-23 21:27:54 GMT 50.897984 -0.844727 13,950 31 377 -1024
2019-05-23 21:27:51 GMT 50.892582 -0.849915 14,050 31 381 -1024
2019-05-23 21:27:48 GMT 50.888077 -0.854335 14,075 31 384 -1088
2019-05-23 21:27:44 GMT 50.882584 -0.859606 14,150 31 388 -1088
2019-05-23 21:27:41 GMT 50.877407 -0.864639 14,175 31 391 -1216
2019-05-23 21:27:38 GMT 50.872425 -0.869446 14,250 31 394 -1280
2019-05-23 21:27:32 GMT 50.863068 -0.878525 14,400 31 399 -1536
2019-05-23 21:27:29 GMT 50.859009 -0.882469 14,475 31 401 -1984
2019-05-23 21:27:26 GMT 50.854271 -0.887070 14,550 31 402 -2048
2019-05-23 21:27:23 GMT 50.844406 -0.896573 14,675 31 404 -2304
2019-05-23 21:27:20 GMT 50.844406 -0.896573 14,775 31 405 -2624
2019-05-23 21:27:17 GMT 50.839607 -0.901184 14,975 31 406 -2624
2019-05-23 21:27:14 GMT 50.835743 -0.904922 16,275 31 413 -2624
2019-05-23 21:27:11 GMT 50.829971 -0.910492 15,375 31 408 -2560
2019-05-23 21:27:08 GMT 50.826462 -0.913869 15,275 31 408 -2560
2019-05-23 21:27:05 GMT 50.819679 -0.920410 15,400 31 413 -2624
2019-05-23 21:27:01 GMT 50.808975 -0.930720 16,450 31 412 -2624
2019-05-23 21:26:58 GMT 50.802177 -0.937271 15,850 31 412 -2624
2019-05-23 21:26:54 GMT 50.802177 -0.937271 15,875 31 413 -2624
2019-05-23 21:26:50 GMT 50.795612 -0.943604 16,050 31 414 -2624
2019-05-23 21:26:44 GMT 50.779881 -0.958710 16,400 31 416 -2688
2019-05-23 21:26:41 GMT 50.779881 -0.958710 16,525 31 417 -2688
2019-05-23 21:26:38 GMT 50.776932 -0.961526 16,650 31 418 -2624
2019-05-23 21:26:35 GMT 50.772308 -0.965980 16,675 31 418 -2624
2019-05-23 21:26:32 GMT 50.766659 -0.971375 16,825 31 420 -2688
2019-05-23 21:26:29 GMT 50.762329 -0.975482 16,950 31 420 -2624
2019-05-23 21:26:26 GMT 50.757019 -0.980604 17,125 31 423 -2496
2019-05-23 21:26:23 GMT 50.751343 -0.986023 17,275 31 423 -2496
2019-05-23 21:26:20 GMT 50.745991 -0.991135 17,375 31 424 -2496
2019-05-23 21:26:17 GMT 50.741638 -0.995302 17,450 31 425 -2432
2019-05-23 21:26:14 GMT 50.736237 -1.000424 17,625 31 434 -2432
2019-05-23 21:26:11 GMT 50.731838 -1.004639 17,775 31 428 -2368
2019-05-23 21:26:08 GMT 50.726074 -1.010148 17,850 31 430 -2368
2019-05-23 21:26:05 GMT 50.720989 -1.015015 17,975 31 431 -2368
2019-05-23 21:26:02 GMT 50.714848 -1.020813 18,150 31 433 -2432
2019-05-23 21:25:59 GMT 50.711403 -1.024094 18,175 31 434 -2432
2019-05-23 21:25:56 GMT 50.701065 -1.033936 18,400 31 436 -2496
2019-05-23 21:25:53 GMT 50.701065 -1.033936 18,475 31 437 -2496
2019-05-23 21:25:50 GMT 50.695862 -1.038802 18,625 31 439 -2496
2019-05-23 21:25:47 GMT 50.691696 -1.042810 18,650 31 439 -2496
2019-05-23 21:25:44 GMT 50.684402 -1.049728 18,825 31 441 -2496
2019-05-23 21:25:41 GMT 50.678467 -1.055356 18,975 31 442 -2432
2019-05-23 21:25:38 GMT 50.667595 -1.065674 19,525 31 444 -2368
2019-05-23 21:25:34 GMT 50.667595 -1.065674 19,225 31 443 -2432
2019-05-23 21:25:31 GMT 50.662308 -1.070661 19,325 31 445 -2368
2019-05-23 21:25:28 GMT 50.656330 -1.076363 19,475 31 445 -2368
2019-05-23 21:25:25 GMT 50.651733 -1.080708 19,625 30 446 -2240
2019-05-23 21:25:22 GMT 50.646416 -1.085716 19,700 31 447 -2240
2019-05-23 21:25:19 GMT 50.642178 -1.089725 19,850 31 448 -2240
2019-05-23 21:25:16 GMT 50.635101 -1.096406 19,925 31 448 -2176
2019-05-23 21:25:13 GMT 50.630493 -1.100801 20,000 31 448 -2176
2019-05-23 21:25:10 GMT 50.625141 -1.105833 20,050 31 448 -2176
2019-05-23 21:25:07 GMT 50.620903 -1.109842 20,350 30 449 -2176
2019-05-23 21:25:04 GMT 50.609497 -1.120605 20,375 30 449 -2176
2019-05-23 21:25:01 GMT 50.603394 -1.126315 20,475 30 451 -2176
2019-05-23 21:24:58 GMT 50.603394 -1.126315 20,575 30 451 -2176
2019-05-23 21:24:54 GMT 50.596893 -1.132242 20,675 29 452 -2240
2019-05-23 21:24:51 GMT 50.590645 -1.137530 20,775 27 453 -2240
2019-05-23 21:24:48 GMT 50.583481 -1.142940 21,000 23 454 -2240
2019-05-23 21:24:45 GMT 50.579636 -1.145686 21,400 21 455 -2240
2019-05-23 21:24:42 GMT 50.571854 -1.150673 21,150 21 455 -2240
2019-05-23 21:24:39 GMT 50.567917 -1.152914 21,250 19 456 -2240
2019-05-23 21:24:36 GMT 50.561508 -1.156383 21,375 18 457 -2240
2019-05-23 21:24:33 GMT 50.548553 -1.162382 21,625 14 458 -2240
2019-05-23 21:24:30 GMT 50.548553 -1.162382 21,650 14 458 -2240
2019-05-23 21:24:27 GMT 50.544434 -1.164045 21,725 13 458 -2240
2019-05-23 21:24:24 GMT 50.536598 -1.167075 21,875 13 460 -2240
2019-05-23 21:24:21 GMT 50.531662 -1.168930 22,050 13 460 -2240
2019-05-23 21:24:18 GMT 50.525051 -1.171529 22,025 13 461 -2240
2019-05-23 21:24:15 GMT 50.520119 -1.173384 22,100 13 461 -2240
2019-05-23 21:24:12 GMT 50.512623 -1.176279 22,300 13 462 -2240
2019-05-23 21:24:09 GMT 50.506805 -1.178506 22,375 13 463 -2304
2019-05-23 21:24:06 GMT 50.499355 -1.181401 22,550 13 464 -2304
2019-05-23 21:24:03 GMT 50.494328 -1.183331 22,900 13 465 -2304
2019-05-23 21:24:00 GMT 50.486832 -1.186227 22,700 13 465 -2304
2019-05-23 21:23:57 GMT 50.480968 -1.188453 22,850 13 466 -2304
2019-05-23 21:23:54 GMT 50.469681 -1.192739 22,975 13 466 -2304
2019-05-23 21:23:51 GMT 50.469681 -1.192739 23,100 13 466 -2304
2019-05-23 21:23:48 GMT 50.461304 -1.195992 23,225 13 467 -2304
2019-05-23 21:23:45 GMT 50.456268 -1.197871 23,300 13 467 -2304
2019-05-23 21:23:42 GMT 50.449963 -1.200331 23,375 13 467 -2304
2019-05-23 21:23:39 GMT 50.442421 -1.203226 23,800 13 465 -2368
2019-05-23 21:23:36 GMT 50.430691 -1.207754 23,725 13 466 -2368
2019-05-23 21:23:30 GMT 50.423149 -1.210575 23,875 13 465 -2368
2019-05-23 21:23:27 GMT 50.416901 -1.212977 23,975 13 465 -2368
2019-05-23 21:23:24 GMT 50.412735 -1.214640 24,075 13 464 -2368
2019-05-23 21:23:21 GMT 50.400284 -1.219410 24,575 13 462 -2368
2019-05-23 21:23:18 GMT 50.400284 -1.219410 24,400 13 462 -2368
2019-05-23 21:23:15 GMT 50.394054 -1.221784 25,075 13 477 -2560
2019-05-23 21:23:11 GMT 50.384537 -1.225409 24,600 13 460 -2304
2019-05-23 21:23:08 GMT 50.372639 -1.229949 24,875 13 457 -2368
2019-05-23 21:23:04 GMT 50.372639 -1.229949 25,075 13 477 -2560
2019-05-23 21:23:01 GMT 50.363609 -1.233438 24,975 13 458 -2560
2019-05-23 21:22:57 GMT 50.355370 -1.236556 25,250 13 458 -2496
2019-05-23 21:22:54 GMT 50.350433 -1.238412 25,325 13 458 -2304
2019-05-23 21:22:50 GMT 50.342987 -1.241232 25,675 13 465 -2112
2019-05-23 21:22:47 GMT 50.335968 -1.243913 25,600 13 463 -2048
2019-05-23 21:22:44 GMT 50.328880 -1.246577 25,675 13 465 -2112
2019-05-23 21:22:41 GMT 50.323853 -1.248507 25,850 13 468 -2240
2019-05-23 21:22:38 GMT 50.315475 -1.251773 25,900 13 468 -2240
2019-05-23 21:22:35 GMT 50.310013 -1.253815 26,300 13 469 -2240
2019-05-23 21:22:32 GMT 50.304108 -1.256128 26,100 13 470 -2240
2019-05-23 21:22:29 GMT 50.299026 -1.258007 26,200 13 471 -2240
2019-05-23 21:22:26 GMT 50.286301 -1.262922 26,425 13 475 -2368
2019-05-23 21:22:20 GMT 50.279022 -1.265729 26,550 13 476 -2496
2019-05-23 21:22:17 GMT 50.271744 -1.268487 26,775 13 477 -2688
2019-05-23 21:22:14 GMT 50.266617 -1.270439 26,800 13 478 -2944
2019-05-23 21:22:11 GMT 50.258450 -1.273598 26,925 13 478 -3136
2019-05-23 21:22:08 GMT 50.253708 -1.275426 30,325 13 478 -3200
2019-05-23 21:22:05 GMT 50.245972 -1.278389 27,250 13 479 -3200
2019-05-23 21:22:02 GMT 50.241268 -1.280204 27,375 13 479 -3136
2019-05-23 21:21:59 GMT 50.233932 -1.282943 27,600 13 479 -3072
2019-05-23 21:21:56 GMT 50.227020 -1.285545 27,775 13 480 -3072
2019-05-23 21:21:53 GMT 50.214935 -1.290171 28,050 13 477 -3904
2019-05-23 21:21:50 GMT 50.214935 -1.290171 28,050 13 480 -3520
2019-05-23 21:21:46 GMT 50.205460 -1.293712 28,225 13 479 -4096
2019-05-23 21:21:43 GMT 50.193420 -1.298338 28,825 13 477 -3840
2019-05-23 21:21:37 GMT 50.184860 -1.301591 29,050 13 477 -3840
2019-05-23 21:21:34 GMT 50.179733 -1.303542 29,125 13 476 -3840
2019-05-23 21:21:31 GMT 50.174141 -1.305591 29,425 13 475 -3776
2019-05-23 21:21:28 GMT 50.168182 -1.307893 29,475 13 475 -3712
2019-05-23 21:21:25 GMT 50.160919 -1.310626 29,675 13 475 -3648
2019-05-23 21:21:22 GMT 50.154922 -1.312938 29,850 13 475 -3648
2019-05-23 21:21:19 GMT 50.147701 -1.315687 30,050 13 474 -3520
2019-05-23 21:21:16 GMT 50.143463 -1.317246 30,100 13 474 -3520
2019-05-23 21:21:13 GMT 50.134106 -1.320809 30,450 13 473 -3392
2019-05-23 21:21:10 GMT 50.128986 -1.322739 30,650 13 473 -3264
2019-05-23 21:21:07 GMT 50.124344 -1.324503 31,375 13 472 -2304
2019-05-23 21:21:04 GMT 50.116699 -1.327394 31,475 13 472 -2688
2019-05-23 21:21:01 GMT 50.109467 -1.330141 31,025 13 472 -3072
2019-05-23 21:20:58 GMT 50.101845 -1.332983 31,250 13 472 -2752
2019-05-23 21:20:55 GMT 50.097610 -1.334616 31,400 13 472 -2176
2019-05-23 21:20:52 GMT 50.089142 -1.337802 31,500 13 472 -2240
2019-05-23 21:20:49 GMT 50.084061 -1.339754 31,575 13 472 -2176
2019-05-23 21:20:46 GMT 50.078110 -1.341994 31,750 13 472 -1856
2019-05-23 21:20:43 GMT 50.070053 -1.344958 31,800 13 472 -1856
2019-05-23 21:20:40 GMT 50.066254 -1.346403 31,925 13 472 -1600
2019-05-23 21:20:37 GMT 50.057785 -1.349584 32,025 13 473 -1216
2019-05-23 21:20:31 GMT 50.044586 -1.354510 32,125 13 472 -896
2019-05-23 21:20:28 GMT 50.038239 -1.356884 32,200 13 472 -896
2019-05-23 21:20:25 GMT 50.033554 -1.358667 32,250 13 472 -960
2019-05-23 21:20:22 GMT 50.025513 -1.361726 32,275 13 472 -960
2019-05-23 21:20:19 GMT 50.014050 -1.366016 32,325 13 472 -960
2019-05-23 21:20:16 GMT 50.014050 -1.366016 32,350 13 473 -960
2019-05-23 21:20:12 GMT 50.005577 -1.369282 32,425 13 473 -960
2019-05-23 21:20:09 GMT 49.997059 -1.372474 32,500 13 473 -960
2019-05-23 21:20:06 GMT 49.986420 -1.376544 32,575 13 474 -960
2019-05-23 21:20:03 GMT 49.980904 -1.378636 32,575 13 474 -960
2019-05-23 21:20:00 GMT 49.980904 -1.378636 32,625 13 474 -960
2019-05-23 21:19:57 GMT 49.971546 -1.382199 32,650 13 474 -960
2019-05-23 21:19:54 GMT 49.967697 -1.383699 32,725 13 475 -960
2019-05-23 21:19:51 GMT 49.961304 -1.386059 32,800 13 474 -960
2019-05-23 21:19:48 GMT 49.953625 -1.388954 32,825 13 474 -960
2019-05-23 21:19:45 GMT 49.946827 -1.391478 32,900 13 474 -960
2019-05-23 21:19:42 GMT 49.941708 -1.393408 33,500 13 474 -960
2019-05-23 21:19:39 GMT 49.934910 -1.395932 32,975 13 474 -960
2019-05-23 21:19:36 GMT 49.928951 -1.398084 33,050 13 474 -960
2019-05-23 21:19:33 GMT 49.922562 -1.400468 33,050 13 473 -960
2019-05-23 21:19:30 GMT 49.916195 -1.402910 33,175 13 472 -896
2019-05-23 21:19:27 GMT 49.910660 -1.404949 33,225 13 472 -896
2019-05-23 21:19:24 GMT 49.904278 -1.407289 33,175 13 473 -896
2019-05-23 21:19:21 GMT 49.897064 -1.410008 33,300 13 472 -896
2019-05-23 21:19:18 GMT 49.889893 -1.412708 33,300 13 472 -896
2019-05-23 21:19:15 GMT 49.885208 -1.414417 33,325 13 472 -896
2019-05-23 21:19:12 GMT 49.878433 -1.416947 33,500 13 472 -960
2019-05-23 21:19:09 GMT 49.869965 -1.420127 33,400 13 472 -896
2019-05-23 21:19:06 GMT 49.865707 -1.421718 33,450 13 472 -896
2019-05-23 21:19:03 GMT 49.858063 -1.424609 33,525 13 472 -896
2019-05-23 21:19:00 GMT 49.853397 -1.426367 33,525 13 472 -960
2019-05-23 21:18:57 GMT 49.846207 -1.429018 33,600 13 473 -960
2019-05-23 21:18:54 GMT 49.838562 -1.431909 33,650 13 473 -960
2019-05-23 21:18:51 GMT 49.832169 -1.434310 33,700 13 474 -960
2019-05-23 21:18:48 GMT 49.824490 -1.437130 33,750 13 474 -960
2019-05-23 21:18:45 GMT 49.821533 -1.438269 33,800 13 475 -960
2019-05-23 21:18:42 GMT 49.812569 -1.441659 33,800 13 476 0
2019-05-23 21:18:39 GMT 49.800156 -1.446292 33,925 13 476 -704
2019-05-23 21:18:35 GMT 49.800156 -1.446292 33,950 13 476 -576
2019-05-23 21:18:32 GMT 49.793762 -1.448711 33,975 13 476 -320
2019-05-23 21:18:29 GMT 49.779602 -1.453954 34,000 13 476 0
2019-05-23 21:18:23 GMT 49.774475 -1.455905 34,000 13 476 0
2019-05-23 21:18:20 GMT 49.766342 -1.458880 34,000 13 476 0
2019-05-23 21:18:17 GMT 49.758663 -1.461775 34,000 13 476 0
2019-05-23 21:18:14 GMT 49.751820 -1.464299 34,000 13 476 0
2019-05-23 21:18:11 GMT 49.747971 -1.465735 34,000 13 476 0
2019-05-23 21:18:08 GMT 49.741974 -1.467976 34,000 13 476 0
2019-05-23 21:18:05 GMT 49.735573 -1.470386 34,000 13 476 0
2019-05-23 21:18:01 GMT 49.722725 -1.475211 34,000 13 476 0
2019-05-23 21:17:58 GMT 49.719727 -1.476288 34,000 13 477 0
2019-05-23 21:17:55 GMT 49.708603 -1.480480 34,000 13 477 0
2019-05-23 21:17:48 GMT 49.698750 -1.484119 34,000 13 477 0
2019-05-23 21:17:44 GMT 49.691437 -1.486840 34,000 13 477 64
2019-05-23 21:17:41 GMT 49.681572 -1.490503 34,000 13 477 64
2019-05-23 21:17:37 GMT 49.675568 -1.492730 34,000 13 477 64
2019-05-23 21:17:34 GMT 49.670013 -1.494791 34,000 13 477 64
2019-05-23 21:17:31 GMT 49.662277 -1.497610 34,000 13 477 64
2019-05-23 21:17:28 GMT 49.654587 -1.500429 34,000 13 476 0
2019-05-23 21:17:25 GMT 49.649460 -1.502380 34,000 13 476 0
2019-05-23 21:17:22 GMT 49.643463 -1.504549 34,000 13 476 0
2019-05-23 21:17:19 GMT 49.634903 -1.507729 34,000 13 476 0
2019-05-23 21:17:16 GMT 49.631470 -1.508958 34,000 13 471 0
2019-05-23 21:17:13 GMT 49.623383 -1.511956 34,000 13 471 0
2019-05-23 21:17:10 GMT 49.617050 -1.514306 34,000 13 471 0
2019-05-23 21:17:07 GMT 49.600571 -1.520419 34,000 13 466 -64
2019-05-23 21:17:04 GMT 49.600571 -1.520419 34,000 13 466 -64
2019-05-23 21:17:01 GMT 49.597641 -1.521462 34,000 13 465 -64
2019-05-23 21:16:58 GMT 49.592194 -1.523462 34,000 13 463 -64
2019-05-23 21:16:55 GMT 49.583858 -1.526580 34,000 13 457 0
2019-05-23 21:16:52 GMT 49.578461 -1.528545 34,000 13 462 0
2019-05-23 21:16:49 GMT 49.565659 -1.533261 34,000 13 459 128
2019-05-23 21:16:45 GMT 49.565659 -1.533261 34,000 13 459 64
2019-05-23 21:16:41 GMT 49.557816 -1.536134 34,000 13 458 -64
2019-05-23 21:16:38 GMT 49.549179 -1.539348 34,000 13 458 0
2019-05-23 21:16:35 GMT 49.542984 -1.541628 34,000 13 458 0
2019-05-23 21:16:31 GMT 49.536797 -1.543950 34,000 13 458 0
2019-05-23 21:16:28 GMT 49.528557 -1.546994 34,000 13 458 0
2019-05-23 21:16:24 GMT 49.522385 -1.549217 34,000 13 458 0
2019-05-23 21:16:21 GMT 49.514969 -1.551963 34,000 13 458 0
2019-05-23 21:16:18 GMT 49.501785 -1.556806 34,000 13 458 0
2019-05-23 21:16:15 GMT 49.497665 -1.558324 34,000 13 458 0
2019-05-23 21:16:09 GMT 49.490707 -1.560875 34,000 13 458 0
2019-05-23 21:16:06 GMT 49.478325 -1.565403 34,000 13 458 0
2019-05-23 21:16:03 GMT 49.478325 -1.565403 34,000 13 458 0
2019-05-23 21:15:59 GMT 49.465199 -1.570228 34,000 13 457 0
2019-05-23 21:15:53 GMT 49.456558 -1.573430 34,000 13 457 0
2019-05-23 21:15:50 GMT 49.451614 -1.575237 34,000 13 457 0
2019-05-23 21:15:47 GMT 49.447090 -1.576909 34,000 13 457 0
2019-05-23 21:15:44 GMT 49.438431 -1.580080 34,000 13 457 64
2019-05-23 21:15:40 GMT 49.423252 -1.585717 34,000 13 457 64
2019-05-23 21:15:36 GMT 49.423252 -1.585717 33,975 13 457 64
2019-05-23 21:15:33 GMT 49.417923 -1.587665 33,975 13 457 64
2019-05-23 21:15:30 GMT 49.410919 -1.590199 33,975 13 457 0
2019-05-23 21:15:27 GMT 49.402725 -1.593234 33,975 13 457 0
2019-05-23 21:15:24 GMT 49.398582 -1.594752 33,975 13 457 -64
2019-05-23 21:15:21 GMT 49.392857 -1.596848 34,000 13 457 0
2019-05-23 21:15:18 GMT 49.386246 -1.599234 34,000 13 457 0
2019-05-23 21:15:14 GMT 49.375992 -1.602948 34,000 13 457 0
2019-05-23 21:15:11 GMT 49.369812 -1.605160 34,000 13 457 0
2019-05-23 21:15:08 GMT 49.364876 -1.606967 34,000 13 457 0
2019-05-23 21:15:04 GMT 49.352142 -1.611539 34,000 13 457 0
2019-05-23 21:15:01 GMT 49.346375 -1.613652 34,000 13 457 0
2019-05-23 21:14:58 GMT 49.346375 -1.613652 34,000 13 457 0
2019-05-23 21:14:55 GMT 49.340206 -1.615858 34,000 13 457 0
2019-05-23 21:14:52 GMT 49.332012 -1.618893 34,000 13 457 0
2019-05-23 21:14:49 GMT 49.327076 -1.620628 34,000 13 457 0
2019-05-23 21:14:46 GMT 49.319675 -1.623375 34,000 13 457 0
2019-05-23 21:14:42 GMT 49.311859 -1.626188 34,000 13 457 0
2019-05-23 21:14:39 GMT 49.306499 -1.628145 34,000 13 457 0
2019-05-23 21:14:36 GMT 49.299938 -1.630530 34,000 13 457 0
2019-05-23 21:14:33 GMT 49.294167 -1.632626 34,000 13 457 0
2019-05-23 21:14:30 GMT 49.288010 -1.634850 34,000 13 457 0
2019-05-23 21:14:27 GMT 49.279770 -1.637878 34,000 13 458 0
2019-05-23 21:14:21 GMT 49.267815 -1.642167 34,000 13 457 0
2019-05-23 21:14:18 GMT 49.263718 -1.643613 34,000 12 457 0
2019-05-23 21:14:15 GMT 49.256653 -1.645836 34,000 10 457 0
2019-05-23 21:14:12 GMT 49.251709 -1.647245 34,000 9 456 0
2019-05-23 21:14:08 GMT 49.240444 -1.649901 34,000 7 456 0
2019-05-23 21:14:04 GMT 49.234623 -1.651057 34,000 6 455 0
2019-05-23 21:14:01 GMT 49.221218 -1.652936 34,000 2 454 0
2019-05-23 21:13:55 GMT 49.214905 -1.653513 34,000 2 454 0
2019-05-23 21:13:52 GMT 49.208649 -1.653948 34,000 1 454 0
2019-05-23 21:13:48 GMT 49.193115 -1.654006 34,000 0 453 -64
2019-05-23 21:13:45 GMT 49.193115 -1.654006 34,000 359 453 -64
2019-05-23 21:13:42 GMT 49.188950 -1.653865 34,000 358 452 -64
2019-05-23 21:13:39 GMT 49.181835 -1.653370 34,000 357 452 -64
2019-05-23 21:13:35 GMT 49.173500 -1.652503 34,000 355 451 -64
2019-05-23 21:13:32 GMT 49.166054 -1.651419 34,025 355 451 -64
2019-05-23 21:13:29 GMT 49.154022 -1.649428 34,025 354 451 -64
2019-05-23 21:13:26 GMT 49.154022 -1.649428 34,025 354 451 0
2019-05-23 21:13:23 GMT 49.146561 -1.648160 34,025 354 451 0
2019-05-23 21:13:20 GMT 49.141987 -1.647443 34,025 354 451 0
2019-05-23 21:13:17 GMT 49.137405 -1.646682 34,025 354 451 0
2019-05-23 21:13:14 GMT 49.129555 -1.645347 34,025 354 451 0
2019-05-23 21:13:11 GMT 49.124130 -1.644428 34,025 354 451 0
2019-05-23 21:13:08 GMT 49.117081 -1.643251 34,025 354 452 64
2019-05-23 21:13:05 GMT 49.109631 -1.641950 34,025 354 452 0
2019-05-23 21:13:02 GMT 49.105488 -1.641227 34,025 354 452 64
2019-05-23 21:12:59 GMT 49.098831 -1.640143 34,025 354 452 0
2019-05-23 21:12:56 GMT 49.093014 -1.639131 34,025 354 452 0
2019-05-23 21:12:53 GMT 49.087193 -1.638119 34,025 354 452 0
2019-05-23 21:12:49 GMT 49.078022 -1.636529 34,025 354 452 64
2019-05-23 21:12:46 GMT 49.071411 -1.635445 34,025 354 452 0
2019-05-23 21:12:43 GMT 49.065594 -1.634433 34,000 354 453 0
2019-05-23 21:12:39 GMT 49.057259 -1.632988 34,000 354 453 0
2019-05-23 21:12:36 GMT 49.049767 -1.631687 34,000 354 453 0
2019-05-23 21:12:32 GMT 49.043110 -1.630602 34,000 354 453 0
2019-05-23 21:12:29 GMT 49.033939 -1.629012 34,025 354 453 0
2019-05-23 21:12:26 GMT 49.027679 -1.628019 34,025 354 453 0
2019-05-23 21:12:23 GMT 49.023090 -1.627205 34,000 354 453 64
2019-05-23 21:12:20 GMT 49.017654 -1.626329 34,000 354 453 0
2019-05-23 21:12:17 GMT 49.011017 -1.625202 34,000 354 453 64
2019-05-23 21:12:14 GMT 49.003510 -1.623934 34,000 354 453 64
2019-05-23 21:12:10 GMT 48.995579 -1.622579 34,000 354 453 64
2019-05-23 21:12:07 GMT 48.990189 -1.621681 34,000 354 453 64
2019-05-23 21:12:04 GMT 48.983940 -1.620628 34,000 354 453 64
2019-05-23 21:12:01 GMT 48.978516 -1.619709 34,000 354 453 64
2019-05-23 21:11:58 GMT 48.973095 -1.618749 34,000 354 453 0
2019-05-23 21:11:55 GMT 48.963924 -1.617231 34,000 354 453 0
2019-05-23 21:11:51 GMT 48.956429 -1.615930 34,000 354 453 0
2019-05-23 21:11:47 GMT 48.946838 -1.614286 34,000 354 453 0
2019-05-23 21:11:44 GMT 48.942673 -1.613582 34,000 354 453 0
2019-05-23 21:11:41 GMT 48.935574 -1.612388 34,000 354 453 0
2019-05-23 21:11:37 GMT 48.921844 -1.610131 34,000 354 453 0
2019-05-23 21:11:34 GMT 48.921844 -1.610131 34,000 354 453 0
2019-05-23 21:11:31 GMT 48.915161 -1.609004 34,000 354 453 0
2019-05-23 21:11:28 GMT 48.907223 -1.607690 34,000 354 453 0
2019-05-23 21:11:24 GMT 48.901402 -1.606750 34,000 354 453 0
2019-05-23 21:11:21 GMT 48.888474 -1.604567 34,000 354 453 -64
2019-05-23 21:11:18 GMT 48.888474 -1.604567 34,000 354 453 0
2019-05-23 21:11:15 GMT 48.881836 -1.603441 34,000 354 453 0
2019-05-23 21:11:12 GMT 48.875568 -1.602414 34,000 354 453 -64
2019-05-23 21:11:09 GMT 48.868073 -1.601185 34,000 354 453 0
2019-05-23 21:11:06 GMT 48.863480 -1.600412 34,000 354 453 0
2019-05-23 21:11:03 GMT 48.855148 -1.599004 34,000 354 453 0
2019-05-23 21:11:00 GMT 48.849731 -1.598077 34,000 354 453 0
2019-05-23 21:10:56 GMT 48.843075 -1.596921 34,000 354 453 0
2019-05-23 21:10:53 GMT 48.836838 -1.595905 34,000 354 453 0
2019-05-23 21:10:50 GMT 48.830200 -1.594778 34,000 354 453 0
2019-05-23 21:10:47 GMT 48.823940 -1.593740 34,000 354 453 0
2019-05-23 21:10:43 GMT 48.816444 -1.592439 34,000 354 453 0
2019-05-23 21:10:40 GMT 48.808548 -1.591116 34,000 354 453 0
2019-05-23 21:10:37 GMT 48.803970 -1.590343 34,000 354 453 0
2019-05-23 21:10:34 GMT 48.796875 -1.589215 34,000 354 453 0
2019-05-23 21:10:31 GMT 48.790192 -1.588088 34,000 354 453 0
2019-05-23 21:10:28 GMT 48.783115 -1.586874 34,000 354 453 0
2019-05-23 21:10:23 GMT 48.774399 -1.585412 34,000 354 453 0
2019-05-23 21:10:19 GMT 48.766891 -1.584144 34,000 354 453 0
2019-05-23 21:10:15 GMT 48.757324 -1.582537 34,000 354 453 0
2019-05-23 21:10:12 GMT 48.751877 -1.581609 34,000 354 453 0
2019-05-23 21:10:08 GMT 48.742722 -1.580059 34,000 354 453 0
2019-05-23 21:10:04 GMT 48.734390 -1.578651 34,000 354 453 0
2019-05-23 21:10:01 GMT 48.729401 -1.577806 34,000 354 453 0
2019-05-23 21:09:58 GMT 48.721069 -1.576397 34,000 354 453 0
2019-05-23 21:09:55 GMT 48.715256 -1.575411 34,000 354 453 0
2019-05-23 21:09:52 GMT 48.709003 -1.574370 34,000 354 453 0
2019-05-23 21:09:49 GMT 48.702759 -1.573369 34,000 354 453 0
2019-05-23 21:09:46 GMT 48.698593 -1.572665 34,000 354 453 0
2019-05-23 21:09:42 GMT 48.689869 -1.571189 34,000 354 453 0
2019-05-23 21:09:39 GMT 48.680283 -1.569566 34,000 354 453 0
2019-05-23 21:09:36 GMT 48.676117 -1.568932 34,000 354 453 0
2019-05-23 21:09:32 GMT 48.668610 -1.567665 34,000 354 453 0
2019-05-23 21:09:29 GMT 48.661102 -1.566397 34,000 354 453 0
2019-05-23 21:09:25 GMT 48.645309 -1.563791 34,000 354 453 0
2019-05-23 21:09:21 GMT 48.645309 -1.563791 33,975 354 453 0
2019-05-23 21:09:18 GMT 48.639084 -1.562733 34,000 354 453 0
2019-05-23 21:09:15 GMT 48.632423 -1.561649 34,000 354 453 64
2019-05-23 21:09:12 GMT 48.626175 -1.560622 34,000 354 453 64
2019-05-23 21:09:09 GMT 48.619492 -1.559495 34,000 354 453 0
2019-05-23 21:09:06 GMT 48.606171 -1.557312 33,975 354 453 64
2019-05-23 21:09:02 GMT 48.606171 -1.557312 34,000 354 453 64
2019-05-23 21:08:59 GMT 48.599140 -1.556156 33,975 354 453 0
2019-05-23 21:08:55 GMT 48.582870 -1.553439 33,975 354 453 64
2019-05-23 21:08:52 GMT 48.582870 -1.553439 33,975 354 453 64
2019-05-23 21:08:49 GMT 48.575817 -1.552253 33,975 354 453 0
2019-05-23 21:08:46 GMT 48.571629 -1.551602 33,975 354 453 0
2019-05-23 21:08:43 GMT 48.566647 -1.550735 33,975 354 453 0
2019-05-23 21:08:40 GMT 48.558746 -1.549424 33,975 354 453 0
2019-05-23 21:08:36 GMT 48.550026 -1.547988 33,975 354 452 0
2019-05-23 21:08:32 GMT 48.537506 -1.545892 33,975 354 452 -64
2019-05-23 21:08:26 GMT 48.527939 -1.544283 33,975 354 452 -64
2019-05-23 21:08:22 GMT 48.521725 -1.543290 34,000 354 452 -64
2019-05-23 21:08:19 GMT 48.513840 -1.541959 34,000 354 452 0
2019-05-23 21:08:15 GMT 48.507980 -1.541044 34,000 354 452 -64
2019-05-23 21:08:12 GMT 48.500916 -1.539893 34,000 354 452 -64
2019-05-23 21:08:09 GMT 48.483902 -1.537100 34,000 354 452 0
2019-05-23 21:08:04 GMT 48.483902 -1.537100 34,000 354 452 0
2019-05-23 21:08:01 GMT 48.478088 -1.536114 34,000 354 452 0
2019-05-23 21:07:57 GMT 48.468513 -1.534544 34,000 354 452 0
2019-05-23 21:07:54 GMT 48.457714 -1.532737 34,000 354 456 0
2019-05-23 21:07:51 GMT 48.457714 -1.532737 34,000 354 452 -64
2019-05-23 21:07:48 GMT 48.450623 -1.531607 34,000 354 452 -64
2019-05-23 21:07:44 GMT 48.436478 -1.529212 34,000 354 452 -64
2019-05-23 21:07:41 GMT 48.436478 -1.529212 34,000 354 452 -64
2019-05-23 21:07:38 GMT 48.428574 -1.527895 34,000 354 452 -64
2019-05-23 21:07:35 GMT 48.424431 -1.527244 34,000 354 453 -64
2019-05-23 21:07:31 GMT 48.414825 -1.525621 34,025 354 453 -64
2019-05-23 21:07:27 GMT 48.408600 -1.524642 34,025 354 453 -64
2019-05-23 21:07:23 GMT 48.399033 -1.523015 34,025 354 453 0
2019-05-23 21:07:20 GMT 48.393219 -1.522029 34,025 354 455 0
2019-05-23 21:07:17 GMT 48.386536 -1.520973 34,025 354 453 0
2019-05-23 21:07:14 GMT 48.381546 -1.520128 34,025 354 453 0
2019-05-23 21:07:10 GMT 48.371964 -1.518571 34,025 354 453 0
2019-05-23 21:07:07 GMT 48.358604 -1.516402 34,025 354 453 0
2019-05-23 21:07:03 GMT 48.358604 -1.516402 34,025 354 454 0
2019-05-23 21:06:59 GMT 48.348999 -1.514775 34,025 354 454 0
2019-05-23 21:06:56 GMT 48.343567 -1.513945 34,025 354 454 0
2019-05-23 21:06:53 GMT 48.336075 -1.512716 34,025 354 454 0
2019-05-23 21:06:50 GMT 48.329414 -1.511560 34,025 354 454 0
2019-05-23 21:06:46 GMT 48.320618 -1.510127 34,025 354 454 0
2019-05-23 21:06:43 GMT 48.316452 -1.509493 34,025 354 454 0
2019-05-23 21:06:40 GMT 48.307251 -1.507944 34,025 354 454 0
2019-05-23 21:06:37 GMT 48.303486 -1.507368 34,025 354 455 0
2019-05-23 21:06:34 GMT 48.298504 -1.506500 34,025 354 455 0
2019-05-23 21:06:31 GMT 48.290127 -1.505127 34,025 354 455 0
2019-05-23 21:06:28 GMT 48.284260 -1.504115 34,025 354 455 0
2019-05-23 21:06:25 GMT 48.278000 -1.503085 34,025 354 455 0
2019-05-23 21:06:22 GMT 48.271736 -1.502091 34,025 354 456 0
2019-05-23 21:06:18 GMT 48.263359 -1.500646 34,025 354 455 0
2019-05-23 21:06:15 GMT 48.257492 -1.499706 34,025 354 455 0
2019-05-23 21:06:12 GMT 48.250790 -1.498550 34,025 354 455 0
2019-05-23 21:06:08 GMT 48.239502 -1.496676 34,025 354 455 0
2019-05-23 21:06:05 GMT 48.236160 -1.496113 34,025 354 456 0
2019-05-23 21:06:02 GMT 48.230255 -1.495197 34,025 354 456 0
2019-05-23 21:05:59 GMT 48.224396 -1.494211 34,025 354 456 0
2019-05-23 21:05:56 GMT 48.217274 -1.492984 34,025 354 456 0
2019-05-23 21:05:53 GMT 48.210983 -1.491957 34,025 354 456 0
2019-05-23 21:05:50 GMT 48.204704 -1.490960 34,025 354 456 0
2019-05-23 21:05:47 GMT 48.192970 -1.489081 34,025 354 456 0
2019-05-23 21:05:40 GMT 48.185429 -1.487852 34,025 354 456 0
2019-05-23 21:05:37 GMT 48.176605 -1.486464 34,025 354 456 0
2019-05-23 21:05:33 GMT 48.170300 -1.485467 34,025 354 456 0
2019-05-23 21:05:29 GMT 48.162323 -1.484140 34,025 354 456 0
2019-05-23 21:05:26 GMT 48.156055 -1.483154 34,025 354 456 0
2019-05-23 21:05:23 GMT 48.148911 -1.481987 34,025 354 456 0
2019-05-23 21:05:19 GMT 48.141357 -1.480682 34,025 354 456 64
2019-05-23 21:05:16 GMT 48.133385 -1.479422 34,000 354 455 64
2019-05-23 21:05:12 GMT 48.125427 -1.478073 34,000 354 456 0
2019-05-23 21:05:09 GMT 48.117874 -1.476837 34,000 354 456 0
2019-05-23 21:05:06 GMT 48.112839 -1.476013 34,000 354 456 0
2019-05-23 21:05:02 GMT 48.104057 -1.474562 34,000 354 456 0
2019-05-23 21:04:58 GMT 48.096909 -1.473404 34,000 354 456 0
2019-05-23 21:04:55 GMT 48.090603 -1.472379 34,000 354 456 0
2019-05-23 21:04:52 GMT 48.083900 -1.471252 34,000 354 456 0
2019-05-23 21:04:49 GMT 48.076359 -1.470055 34,000 354 456 0
2019-05-23 21:04:46 GMT 48.070908 -1.469147 34,000 354 456 0
2019-05-23 21:04:40 GMT 48.049545 -1.465618 34,000 354 456 0
2019-05-23 21:04:36 GMT 48.049545 -1.465618 34,000 354 456 0
2019-05-23 21:04:30 GMT 48.036976 -1.463576 34,000 354 456 0
2019-05-23 21:04:27 GMT 48.030670 -1.462555 34,000 354 456 0
2019-05-23 21:04:24 GMT 48.024811 -1.461662 34,000 354 456 0
2019-05-23 21:04:21 GMT 48.016434 -1.460289 34,000 354 455 64
2019-05-23 21:04:18 GMT 48.006363 -1.458641 34,000 354 455 64
2019-05-23 21:04:15 GMT 48.006363 -1.458641 34,000 354 455 64
2019-05-23 21:04:12 GMT 48.000057 -1.457590 34,000 354 455 64
2019-05-23 21:04:08 GMT 47.989609 -1.455894 34,000 354 455 64
2019-05-23 21:04:05 GMT 47.984573 -1.455070 34,000 354 456 64
2019-05-23 21:04:02 GMT 47.972454 -1.453083 34,000 354 456 64
2019-05-23 21:03:59 GMT 47.972454 -1.453083 34,000 354 456 64
2019-05-23 21:03:56 GMT 47.966587 -1.452167 34,000 354 456 64
2019-05-23 21:03:53 GMT 47.954407 -1.450195 34,000 354 455 64
2019-05-23 21:03:50 GMT 47.954407 -1.450195 34,000 354 455 64
2019-05-23 21:03:47 GMT 47.946476 -1.448928 33,975 354 455 64
2019-05-23 21:03:44 GMT 47.940613 -1.447942 33,975 354 455 64
2019-05-23 21:03:41 GMT 47.935585 -1.447097 33,975 354 455 64
2019-05-23 21:03:36 GMT 47.918427 -1.444290 33,975 354 455 64
2019-05-23 21:03:28 GMT 47.907143 -1.442519 33,975 354 455 64
2019-05-23 21:03:24 GMT 47.898331 -1.441063 33,950 354 455 64
2019-05-23 21:03:21 GMT 47.891220 -1.439913 33,950 354 455 64
2019-05-23 21:03:16 GMT 47.874893 -1.437218 33,950 354 455 64
2019-05-23 21:03:09 GMT 47.867805 -1.436110 33,950 354 455 64
2019-05-23 21:03:05 GMT 47.859879 -1.434814 33,950 354 455 64
2019-05-23 21:03:02 GMT 47.852768 -1.433645 33,950 354 455 0
2019-05-23 21:02:58 GMT 47.845226 -1.432448 33,950 354 455 0
2019-05-23 21:02:53 GMT 47.833099 -1.430489 33,950 354 454 -64
2019-05-23 21:02:50 GMT 47.828110 -1.429665 33,950 354 454 -64
2019-05-23 21:02:47 GMT 47.823074 -1.428909 33,975 354 453 -64
2019-05-23 21:02:42 GMT 47.811401 -1.426987 33,950 354 454 -64
2019-05-23 21:02:39 GMT 47.805984 -1.426110 33,975 354 454 -64
2019-05-23 21:02:36 GMT 47.798489 -1.424913 33,975 354 453 -64
2019-05-23 21:02:33 GMT 47.792221 -1.423897 33,975 354 453 -64
2019-05-23 21:02:30 GMT 47.784290 -1.422659 33,975 354 453 -64
2019-05-23 21:02:26 GMT 47.778030 -1.421631 33,975 354 453 -64
2019-05-23 21:02:22 GMT 47.770138 -1.420335 33,975 354 453 -64
2019-05-23 21:02:19 GMT 47.763435 -1.419279 33,975 354 453 -64
2019-05-23 21:02:12 GMT 47.748871 -1.416893 33,975 354 453 -64
2019-05-23 21:02:08 GMT 47.740948 -1.415617 33,975 354 453 0
2019-05-23 21:02:05 GMT 47.732616 -1.414349 33,975 354 453 -64
2019-05-23 21:02:02 GMT 47.727219 -1.413460 33,975 354 453 -64
2019-05-23 21:01:59 GMT 47.722229 -1.412636 34,000 354 453 -64
2019-05-23 21:01:56 GMT 47.713898 -1.411263 34,000 354 453 -64
2019-05-23 21:01:52 GMT 47.704697 -1.409821 34,000 354 453 -64
2019-05-23 21:01:47 GMT 47.697189 -1.408585 34,000 354 453 -64
2019-05-23 21:01:44 GMT 47.688858 -1.407211 34,000 354 453 -64
2019-05-23 21:01:41 GMT 47.682617 -1.406180 34,000 354 454 -64
2019-05-23 21:01:38 GMT 47.678429 -1.405546 34,000 354 454 -64
2019-05-23 21:01:35 GMT 47.670937 -1.404278 34,025 354 454 -64
2019-05-23 21:01:31 GMT 47.660927 -1.402729 34,025 354 454 -64
2019-05-23 21:01:27 GMT 47.655487 -1.401855 34,025 354 454 -64
2019-05-23 21:01:24 GMT 47.648804 -1.400757 34,025 354 454 0
2019-05-23 21:01:20 GMT 47.640022 -1.399348 34,025 354 454 0
2019-05-23 21:01:12 GMT 47.622070 -1.396500 34,025 354 455 0
2019-05-23 21:01:08 GMT 47.607834 -1.394302 34,025 354 455 0
2019-05-23 21:01:04 GMT 47.607834 -1.394302 34,025 354 455 0
2019-05-23 21:01:01 GMT 47.600735 -1.393151 34,000 354 455 0
2019-05-23 21:00:58 GMT 47.595291 -1.392311 34,025 354 456 0
2019-05-23 21:00:52 GMT 47.573921 -1.388925 34,025 354 456 0
2019-05-23 21:00:48 GMT 47.573921 -1.388925 34,025 354 456 0
2019-05-23 21:00:44 GMT 47.565495 -1.387587 34,025 354 456 0
2019-05-23 21:00:40 GMT 47.554184 -1.385788 34,025 354 456 0
2019-05-23 21:00:37 GMT 47.549149 -1.384964 34,025 354 456 0
2019-05-23 21:00:32 GMT 47.539902 -1.383522 34,025 354 457 0
2019-05-23 21:00:29 GMT 47.533173 -1.382423 34,025 354 457 0
2019-05-23 21:00:23 GMT 47.521828 -1.380686 34,000 354 458 0
2019-05-23 21:00:20 GMT 47.514679 -1.379539 34,025 354 458 0
2019-05-23 21:00:16 GMT 47.506256 -1.378166 34,025 354 458 0
2019-05-23 21:00:10 GMT 47.491524 -1.375826 34,025 354 458 -64
2019-05-23 21:00:04 GMT 47.482258 -1.374347 34,025 354 458 -64
2019-05-23 20:59:58 GMT 47.468758 -1.372235 34,025 354 458 0
2019-05-23 20:59:54 GMT 47.459496 -1.370756 34,025 354 458 0
2019-05-23 20:59:51 GMT 47.452744 -1.369699 34,025 354 458 0
2019-05-23 20:59:48 GMT 47.447296 -1.368828 34,025 354 459 64
2019-05-23 20:59:45 GMT 47.439243 -1.367587 34,025 354 459 64
2019-05-23 20:59:40 GMT 47.429981 -1.366108 34,025 354 459 64
2019-05-23 20:59:37 GMT 47.423676 -1.365120 34,000 354 459 64
2019-05-23 20:59:34 GMT 47.416077 -1.363884 34,000 354 459 64
2019-05-23 20:59:28 GMT 47.404221 -1.362030 34,000 354 459 64
2019-05-23 20:59:24 GMT 47.397907 -1.361037 34,000 354 460 64
2019-05-23 20:59:20 GMT 47.382683 -1.358572 34,000 354 460 0
2019-05-23 20:59:13 GMT 47.371696 -1.356882 34,000 354 460 0
2019-05-23 20:59:10 GMT 47.368298 -1.356319 34,000 354 460 64
2019-05-23 20:59:06 GMT 47.358150 -1.354769 34,000 354 460 0
2019-05-23 20:59:03 GMT 47.353500 -1.353996 34,000 354 460 0
2019-05-23 20:58:59 GMT 47.345032 -1.352692 34,000 354 460 0
2019-05-23 20:58:56 GMT 47.337013 -1.351389 34,000 354 460 0
2019-05-23 20:58:53 GMT 47.331482 -1.350563 34,000 354 460 0
2019-05-23 20:58:49 GMT 47.322189 -1.349052 33,975 354 460 0
2019-05-23 20:58:45 GMT 47.315414 -1.347954 33,975 354 460 0
2019-05-23 20:58:42 GMT 47.309086 -1.346952 33,975 354 460 0
2019-05-23 20:58:38 GMT 47.300613 -1.345543 34,000 354 460 0
2019-05-23 20:58:35 GMT 47.287109 -1.343290 34,000 354 460 0
2019-05-23 20:58:32 GMT 47.287109 -1.343290 34,000 354 460 0
2019-05-23 20:58:29 GMT 47.271889 -1.340825 34,000 354 460 -64
2019-05-23 20:58:25 GMT 47.271889 -1.340825 34,000 354 460 -64
2019-05-23 20:58:21 GMT 47.264694 -1.339645 34,000 354 460 -64
2019-05-23 20:58:15 GMT 47.250755 -1.337445 34,000 354 460 -64
2019-05-23 20:58:10 GMT 47.241444 -1.335966 34,000 354 460 -64
2019-05-23 20:58:05 GMT 47.229572 -1.334135 34,000 354 460 -64
2019-05-23 20:57:59 GMT 47.217316 -1.332230 34,000 354 460 -64
2019-05-23 20:57:55 GMT 47.199127 -1.329346 34,025 354 460 -64
2019-05-23 20:57:50 GMT 47.199127 -1.329346 34,025 354 460 -64
2019-05-23 20:57:47 GMT 47.192379 -1.328289 34,025 354 460 -64
2019-05-23 20:57:42 GMT 47.181347 -1.326529 34,025 354 460 -64
2019-05-23 20:57:38 GMT 47.172455 -1.325157 34,025 354 460 -64
2019-05-23 20:57:34 GMT 47.154694 -1.322342 34,025 354 461 64
2019-05-23 20:57:29 GMT 47.154694 -1.322342 34,025 354 460 0
2019-05-23 20:57:26 GMT 47.147503 -1.321176 34,025 355 461 64
2019-05-23 20:57:23 GMT 47.140320 -1.320076 34,025 354 461 64
2019-05-23 20:57:19 GMT 47.132278 -1.318852 34,025 355 461 64
2019-05-23 20:57:16 GMT 47.125481 -1.317796 34,025 355 461 64
2019-05-23 20:57:13 GMT 47.119125 -1.316849 34,025 354 461 64
2019-05-23 20:57:09 GMT 47.111050 -1.315542 34,000 354 461 64
2019-05-23 20:57:06 GMT 47.104706 -1.314583 34,000 354 461 64
2019-05-23 20:57:02 GMT 47.097061 -1.313347 34,000 354 461 64
2019-05-23 20:56:59 GMT 47.088146 -1.311951 34,000 354 461 0
2019-05-23 20:56:56 GMT 47.083073 -1.311176 34,000 354 461 0
2019-05-23 20:56:52 GMT 47.074600 -1.309838 34,000 354 461 0
2019-05-23 20:56:47 GMT 47.066082 -1.308570 34,000 354 461 64
2019-05-23 20:56:44 GMT 47.056770 -1.307091 34,000 354 461 64
2019-05-23 20:56:40 GMT 47.050812 -1.306176 34,000 354 461 0
2019-05-23 20:56:36 GMT 47.041077 -1.304626 34,000 354 461 0
2019-05-23 20:56:31 GMT 47.030045 -1.302910 34,000 354 461 0
2019-05-23 20:56:25 GMT 47.017319 -1.300850 34,000 354 461 0
2019-05-23 20:56:20 GMT 47.006725 -1.299133 34,000 354 461 0
2019-05-23 20:56:15 GMT 46.994858 -1.297232 34,000 354 461 0
2019-05-23 20:56:10 GMT 46.979588 -1.294837 34,000 354 461 0
2019-05-23 20:56:04 GMT 46.972366 -1.293709 34,000 354 461 0
2019-05-23 20:56:01 GMT 46.966415 -1.292816 34,000 354 461 0
2019-05-23 20:55:54 GMT 46.951996 -1.290550 34,000 354 461 0
2019-05-23 20:55:51 GMT 46.943089 -1.289133 34,000 354 461 0
2019-05-23 20:55:46 GMT 46.935059 -1.287872 34,000 354 461 0
2019-05-23 20:55:43 GMT 46.927822 -1.286809 34,000 354 461 0
2019-05-23 20:55:40 GMT 46.921463 -1.285812 34,000 354 461 0
2019-05-23 20:55:33 GMT 46.906639 -1.283499 34,000 355 461 0
2019-05-23 20:55:29 GMT 46.898167 -1.282231 34,000 355 461 0
2019-05-23 20:55:22 GMT 46.884575 -1.280119 34,000 355 461 0
2019-05-23 20:55:19 GMT 46.878204 -1.279152 34,000 355 461 0
2019-05-23 20:55:12 GMT 46.862507 -1.276749 34,000 355 461 0
2019-05-23 20:55:08 GMT 46.855316 -1.275687 34,000 354 461 -64
2019-05-23 20:55:02 GMT 46.840443 -1.273384 34,000 354 461 0
2019-05-23 20:54:58 GMT 46.832809 -1.272148 34,000 354 461 0
2019-05-23 20:54:51 GMT 46.816315 -1.269591 34,000 354 461 0
2019-05-23 20:54:48 GMT 46.811188 -1.268720 34,000 354 461 0
2019-05-23 20:54:40 GMT 46.794250 -1.266040 34,000 354 461 0
2019-05-23 20:54:35 GMT 46.785370 -1.264664 34,000 354 461 0
2019-05-23 20:54:29 GMT 46.771362 -1.262490 34,000 354 461 0
2019-05-23 20:54:25 GMT 46.761581 -1.260956 34,000 354 461 0
2019-05-23 20:54:21 GMT 46.752686 -1.259542 34,000 354 462 0
2019-05-23 20:54:17 GMT 46.745476 -1.258415 34,000 354 462 0
2019-05-23 20:54:13 GMT 46.738220 -1.257265 34,000 354 462 0
2019-05-23 20:54:10 GMT 46.731834 -1.256287 34,000 354 462 0
2019-05-23 20:54:07 GMT 46.722061 -1.254786 34,000 354 463 0
2019-05-23 20:54:02 GMT 46.714844 -1.253677 34,000 354 463 0
2019-05-23 20:53:59 GMT 46.707596 -1.252508 34,000 354 463 0
2019-05-23 20:53:55 GMT 46.699482 -1.251274 34,000 354 463 0
2019-05-23 20:53:49 GMT 46.686726 -1.249352 34,000 355 463 0
2019-05-23 20:53:45 GMT 46.678207 -1.248047 34,000 355 463 0
2019-05-23 20:53:42 GMT 46.673088 -1.247292 34,000 354 462 0
2019-05-23 20:53:38 GMT 46.664616 -1.245987 34,000 355 462 0
2019-05-23 20:53:33 GMT 46.653122 -1.244202 34,000 354 461 0
2019-05-23 20:53:29 GMT 46.642914 -1.242661 34,000 354 461 0
2019-05-23 20:53:23 GMT 46.628956 -1.240494 34,000 354 460 0
2019-05-23 20:53:18 GMT 46.620895 -1.239311 34,000 355 460 0
2019-05-23 20:53:15 GMT 46.615410 -1.238434 34,000 355 459 0
2019-05-23 20:53:12 GMT 46.607777 -1.237267 34,000 355 459 0
2019-05-23 20:53:05 GMT 46.590500 -1.234622 34,000 354 458 0
2019-05-23 20:53:00 GMT 46.584595 -1.233684 34,000 354 457 -64
2019-05-23 20:52:56 GMT 46.575348 -1.232277 34,000 354 457 -64
2019-05-23 20:52:53 GMT 46.567795 -1.231139 34,000 354 455 -64
2019-05-23 20:52:49 GMT 46.561066 -1.230067 34,000 354 455 -64
2019-05-23 20:52:46 GMT 46.553123 -1.228889 34,000 354 455 -64
2019-05-23 20:52:42 GMT 46.544788 -1.227585 34,025 354 454 -64
2019-05-23 20:52:39 GMT 46.538925 -1.226624 34,025 354 454 -64
2019-05-23 20:52:36 GMT 46.532684 -1.225712 34,025 354 454 -64
2019-05-23 20:52:33 GMT 46.526001 -1.224641 34,025 354 454 -64
2019-05-23 20:52:29 GMT 46.517624 -1.223368 34,025 354 454 0
2019-05-23 20:52:25 GMT 46.509689 -1.222160 34,000 354 458 256
2019-05-23 20:52:22 GMT 46.502987 -1.221130 34,000 354 456 128
2019-05-23 20:52:15 GMT 46.488281 -1.218813 33,600 354 466 1472
2019-05-23 20:52:09 GMT 46.473038 -1.216468 33,925 354 462 576
2019-05-23 20:52:04 GMT 46.454662 -1.213646 33,600 354 466 1472
2019-05-23 20:51:59 GMT 46.454662 -1.213646 33,825 354 466 1344
2019-05-23 20:51:53 GMT 46.442654 -1.211792 33,750 354 467 1344
2019-05-23 20:51:49 GMT 46.431931 -1.210171 33,425 354 467 1472
2019-05-23 20:51:42 GMT 46.418587 -1.208153 33,375 354 467 1280
2019-05-23 20:51:35 GMT 46.402679 -1.205750 33,325 354 467 1152
2019-05-23 20:51:32 GMT 46.382950 -1.202735 32,900 354 467 1536
2019-05-23 20:51:25 GMT 46.382950 -1.202735 33,100 354 467 1536
2019-05-23 20:51:21 GMT 46.373474 -1.201261 33,050 354 467 1536
2019-05-23 20:51:16 GMT 46.361000 -1.199364 32,825 354 468 1664
2019-05-23 20:51:10 GMT 46.350266 -1.197711 32,675 355 471 2496
2019-05-23 20:51:03 GMT 46.333832 -1.195232 32,400 355 471 2496
2019-05-23 20:50:59 GMT 46.325623 -1.193939 32,225 354 473 2496
2019-05-23 20:50:54 GMT 46.305511 -1.190849 31,950 354 476 2368
2019-05-23 20:50:50 GMT 46.305511 -1.190849 31,850 354 477 2368
2019-05-23 20:50:42 GMT 46.287914 -1.188171 31,525 354 479 2176
2019-05-23 20:50:38 GMT 46.279495 -1.186925 31,475 354 480 2048
2019-05-23 20:50:33 GMT 46.265305 -1.184715 31,200 354 482 1600
2019-05-23 20:50:30 GMT 46.259563 -1.183846 31,125 354 482 1600
2019-05-23 20:50:27 GMT 46.255554 -1.183241 31,075 354 483 1536
2019-05-23 20:50:21 GMT 46.241779 -1.181168 30,925 354 482 1216
2019-05-23 20:50:17 GMT 46.232483 -1.179757 30,850 354 482 1344
2019-05-23 20:50:12 GMT 46.221390 -1.178078 30,650 355 482 1664
2019-05-23 20:50:09 GMT 46.215199 -1.177116 30,650 355 482 1728
2019-05-23 20:50:06 GMT 46.208542 -1.176140 30,550 355 482 1728
2019-05-23 20:50:01 GMT 46.195221 -1.174130 30,400 354 482 1536
2019-05-23 20:49:58 GMT 46.191696 -1.173527 30,350 354 482 1536
2019-05-23 20:49:52 GMT 46.175259 -1.171074 30,175 354 482 1216
2019-05-23 20:49:48 GMT 46.169495 -1.170178 30,125 354 482 1216
2019-05-23 20:49:44 GMT 46.159290 -1.168671 30,000 354 481 1152
2019-05-23 20:49:40 GMT 46.148209 -1.166962 29,925 355 480 1088
2019-05-23 20:49:36 GMT 46.141602 -1.165924 29,850 355 480 1088
2019-05-23 20:49:29 GMT 46.127495 -1.163795 29,700 355 478 960
2019-05-23 20:49:26 GMT 46.120010 -1.162675 29,700 355 478 960
2019-05-23 20:49:23 GMT 46.113392 -1.161667 29,650 354 477 896
2019-05-23 20:49:19 GMT 46.105476 -1.160500 29,575 354 476 960
2019-05-23 20:49:16 GMT 46.099377 -1.159538 29,550 354 475 960
2019-05-23 20:49:08 GMT 46.078857 -1.156445 29,375 355 473 1344
2019-05-23 20:48:59 GMT 46.060547 -1.153698 29,175 355 473 1408
2019-05-23 20:48:56 GMT 46.055328 -1.152962 29,150 355 473 1344
2019-05-23 20:48:48 GMT 46.034065 -1.149719 28,875 355 472 1472
2019-05-23 20:48:37 GMT 46.014542 -1.146798 28,450 355 470 1344
2019-05-23 20:48:25 GMT 45.985977 -1.142511 28,425 355 470 1344
2019-05-23 20:48:19 GMT 45.972614 -1.140450 28,225 354 468 1280
2019-05-23 20:48:16 GMT 45.965286 -1.139363 28,150 354 468 1280
2019-05-23 20:48:04 GMT 45.942078 -1.135879 27,925 354 465 1216
2019-05-23 20:47:54 GMT 45.922012 -1.132828 27,650 354 463 1280
2019-05-23 20:47:51 GMT 45.915619 -1.131927 27,650 355 462 1216
2019-05-23 20:47:42 GMT 45.893555 -1.128577 27,450 355 460 1280
2019-05-23 20:47:31 GMT 45.871971 -1.125343 27,200 354 457 1216
2019-05-23 20:47:20 GMT 45.848053 -1.121744 26,975 355 454 1664
2019-05-23 20:47:11 GMT 45.830910 -1.119232 26,725 354 454 1792
2019-05-23 20:47:07 GMT 45.822968 -1.117993 26,650 354 454 1792
2019-05-23 20:47:02 GMT 45.808777 -1.115849 26,425 355 454 1856
2019-05-23 20:46:58 GMT 45.804565 -1.115246 26,350 355 454 1792
2019-05-23 20:46:49 GMT 45.784561 -1.112232 26,075 355 453 1600
2019-05-23 20:46:42 GMT 45.769135 -1.109962 25,900 355 453 1536
2019-05-23 20:46:39 GMT 45.761215 -1.108815 25,800 355 451 1344
2019-05-23 20:46:33 GMT 45.749165 -1.107010 25,675 355 450 1280
2019-05-23 20:46:28 GMT 45.740479 -1.105734 25,550 354 448 1280
2019-05-23 20:46:25 GMT 45.735107 -1.104950 25,525 354 448 1280
2019-05-23 20:46:20 GMT 45.723606 -1.103096 25,400 353 446 1472
2019-05-23 20:46:17 GMT 45.717880 -1.102066 25,325 353 445 1472
2019-05-23 20:46:14 GMT 45.712601 -1.100977 25,250 351 444 1600
2019-05-23 20:46:09 GMT 45.701633 -1.098427 25,050 351 443 1600
2019-05-23 20:46:06 GMT 45.696396 -1.097092 25,050 350 443 1600
2019-05-23 20:46:03 GMT 45.690369 -1.095474 24,975 349 442 1536
2019-05-23 20:45:56 GMT 45.675240 -1.090805 24,775 347 439 1600
2019-05-23 20:45:52 GMT 45.665359 -1.087513 24,650 347 439 1600
2019-05-23 20:45:47 GMT 45.656662 -1.084565 24,450 347 438 1536
2019-05-23 20:45:43 GMT 45.649963 -1.082291 24,450 347 436 1600
2019-05-23 20:45:38 GMT 45.635067 -1.077278 24,250 347 435 1536
2019-05-23 20:45:32 GMT 45.615513 -1.070755 24,075 347 432 1216
2019-05-23 20:45:26 GMT 45.615513 -1.070755 24,025 347 431 1152
2019-05-23 20:45:23 GMT 45.610859 -1.069176 23,925 347 430 1152
2019-05-23 20:45:14 GMT 45.594658 -1.063683 23,700 347 427 1344
2019-05-23 20:45:11 GMT 45.575134 -1.057032 23,600 347 424 1792
2019-05-23 20:45:05 GMT 45.575134 -1.057032 22,825 347 419 1280
2019-05-23 20:44:59 GMT 45.565979 -1.053951 23,400 347 424 1920
2019-05-23 20:44:53 GMT 45.554535 -1.050065 23,200 347 423 1920
2019-05-23 20:44:49 GMT 45.545425 -1.046971 23,025 347 422 1792
2019-05-23 20:44:44 GMT 45.535164 -1.043500 22,925 347 421 1600
2019-05-23 20:44:39 GMT 45.526428 -1.040562 22,775 347 420 1344
2019-05-23 20:44:32 GMT 45.514030 -1.036332 22,675 347 416 1216
2019-05-23 20:44:29 GMT 45.507660 -1.034219 22,575 347 415 1216
2019-05-23 20:44:23 GMT 45.494617 -1.029767 22,400 347 413 1600
2019-05-23 20:44:17 GMT 45.486832 -1.027156 22,300 347 412 1728
2019-05-23 20:44:11 GMT 45.474976 -1.023167 22,150 347 411 1856
2019-05-23 20:44:05 GMT 45.462433 -1.018917 21,900 347 410 1920
2019-05-23 20:44:01 GMT 45.456909 -1.017039 21,800 347 408 1984
2019-05-23 20:43:56 GMT 45.447006 -1.013750 21,625 347 407 1920
2019-05-23 20:43:51 GMT 45.437824 -1.010608 21,425 347 407 1920
2019-05-23 20:43:48 GMT 45.430515 -1.008130 21,325 347 406 2048
2019-05-23 20:43:45 GMT 45.427917 -1.007276 21,275 347 406 2112
2019-05-23 20:43:39 GMT 45.416595 -1.003507 21,025 347 403 1920
2019-05-23 20:43:36 GMT 45.410778 -1.001498 20,875 347 405 1984
2019-05-23 20:43:32 GMT 45.400909 -0.998186 20,775 347 404 1856
2019-05-23 20:43:29 GMT 45.398026 -0.997205 20,600 347 398 1792
2019-05-23 20:43:23 GMT 45.387863 -0.993805 20,525 347 402 2112
2019-05-23 20:43:18 GMT 45.378796 -0.990779 20,350 347 401 2176
2019-05-23 20:43:13 GMT 45.368694 -0.987363 20,175 347 399 1792
2019-05-23 20:43:08 GMT 45.360081 -0.984482 20,025 347 397 1792
2019-05-23 20:43:05 GMT 45.352570 -0.981968 19,875 347 387 2048
2019-05-23 20:43:02 GMT 45.348675 -0.980664 19,850 347 395 1856
2019-05-23 20:42:57 GMT 45.341171 -0.978110 19,725 347 391 1920
2019-05-23 20:42:54 GMT 45.334808 -0.976018 19,600 347 392 1856
2019-05-23 20:42:50 GMT 45.328445 -0.973860 19,500 347 391 1984
2019-05-23 20:42:47 GMT 45.321770 -0.971620 19,375 347 390 2048
2019-05-23 20:42:43 GMT 45.316544 -0.969805 19,275 347 389 2048
2019-05-23 20:42:40 GMT 45.310596 -0.967802 19,150 347 388 1984
2019-05-23 20:42:36 GMT 45.302914 -0.965256 19,000 347 386 2112
2019-05-23 20:42:33 GMT 45.298370 -0.963723 18,900 347 385 2176
2019-05-23 20:42:29 GMT 45.291790 -0.961505 18,775 347 384 2176
2019-05-23 20:42:25 GMT 45.285233 -0.959276 18,625 347 384 2240
2019-05-23 20:42:22 GMT 45.279007 -0.957184 18,450 347 382 2560
2019-05-23 20:42:19 GMT 45.273819 -0.955476 18,375 347 382 2752
2019-05-23 20:42:16 GMT 45.267288 -0.953260 18,200 347 382 2816
2019-05-23 20:42:11 GMT 45.260422 -0.950971 17,875 347 382 2880
2019-05-23 20:42:08 GMT 45.254929 -0.949075 17,875 347 382 2880
2019-05-23 20:42:02 GMT 45.244259 -0.945494 17,350 347 382 3008
2019-05-23 20:41:55 GMT 45.231537 -0.941228 17,200 347 382 2752
2019-05-23 20:41:43 GMT 45.212952 -0.935015 16,750 347 381 2496
2019-05-23 20:41:38 GMT 45.203384 -0.931811 16,100 347 367 2112
2019-05-23 20:41:34 GMT 45.195518 -0.929149 16,350 347 378 1920
2019-05-23 20:41:23 GMT 45.177612 -0.923179 16,075 347 371 1728
2019-05-23 20:41:17 GMT 45.167961 -0.919904 15,925 347 368 2048
2019-05-23 20:41:13 GMT 45.160046 -0.917291 15,700 348 367 2496
2019-05-23 20:41:09 GMT 45.155090 -0.915724 15,575 348 366 2688
2019-05-23 20:41:01 GMT 45.142456 -0.912192 15,250 350 366 2880
2019-05-23 20:40:52 GMT 45.125748 -0.908007 14,700 351 367 3136
2019-05-23 20:40:49 GMT 45.120392 -0.906699 14,550 351 367 2688
2019-05-23 20:40:40 GMT 45.106339 -0.903233 14,175 351 367 2496
2019-05-23 20:40:37 GMT 45.101997 -0.902152 14,075 351 366 2496
2019-05-23 20:40:31 GMT 45.090637 -0.899338 13,800 351 363 2432
2019-05-23 20:40:27 GMT 45.085377 -0.898065 13,675 351 363 2496
2019-05-23 20:40:20 GMT 45.073505 -0.895118 13,375 351 360 2304
2019-05-23 20:40:16 GMT 45.067593 -0.893711 13,250 351 359 2176
2019-05-23 20:40:10 GMT 45.056854 -0.891070 13,000 351 354 2176
2019-05-23 20:40:07 GMT 45.051041 -0.889566 12,875 351 353 2112
2019-05-23 20:39:58 GMT 45.038544 -0.886476 12,625 350 348 2176
2019-05-23 20:39:55 GMT 45.033783 -0.885315 12,500 351 347 2368
2019-05-23 20:39:49 GMT 45.023712 -0.882830 12,225 351 344 3072
2019-05-23 20:39:46 GMT 45.018082 -0.881457 12,050 350 343 3328
2019-05-23 20:39:38 GMT 45.006516 -0.878571 11,650 350 343 2880
2019-05-23 20:39:35 GMT 45.001831 -0.877402 11,500 350 342 2432
2019-05-23 20:39:27 GMT 44.988503 -0.873949 11,225 350 338 1600
2019-05-23 20:39:23 GMT 44.983932 -0.872825 11,150 350 334 1088
2019-05-23 20:39:16 GMT 44.973419 -0.870198 11,025 350 325 1088
2019-05-23 20:39:13 GMT 44.968414 -0.868966 10,975 350 319 1088
2019-05-23 20:39:09 GMT 44.962337 -0.867384 10,900 350 310 960
2019-05-23 20:39:06 GMT 44.957775 -0.866245 10,850 350 310 960
2019-05-23 20:39:02 GMT 44.952438 -0.864912 10,825 350 307 1024
2019-05-23 20:38:58 GMT 44.947208 -0.863633 10,700 350 298 1344
2019-05-23 20:38:54 GMT 44.940182 -0.861891 10,600 350 292 1792
2019-05-23 20:38:51 GMT 44.938087 -0.861355 10,475 350 286 2496
2019-05-23 20:38:48 GMT 44.933849 -0.860350 10,425 350 286 2496
2019-05-23 20:38:44 GMT 44.929413 -0.859222 10,275 351 284 3008
2019-05-23 20:38:40 GMT 44.923515 -0.857737 10,050 351 282 3328
2019-05-23 20:38:35 GMT 44.915787 -0.855862 9,700 350 281 3712
2019-05-23 20:38:30 GMT 44.910667 -0.854589 9,450 350 281 3904
2019-05-23 20:38:27 GMT 44.907349 -0.853729 9,275 351 281 3968
2019-05-23 20:38:24 GMT 44.902771 -0.852618 9,050 350 281 4032
2019-05-23 20:38:19 GMT 44.896088 -0.850983 8,700 350 281 3904
2019-05-23 20:38:14 GMT 44.888901 -0.849152 8,350 350 281 3776
2019-05-23 20:38:06 GMT 44.879944 -0.846885 7,900 350 280 4352
2019-05-23 20:38:03 GMT 44.875580 -0.845816 7,650 350 281 4672
2019-05-23 20:37:59 GMT 44.870453 -0.844509 7,325 350 283 4608
2019-05-23 20:37:56 GMT 44.867092 -0.843670 7,075 350 284 4224
2019-05-23 20:37:53 GMT 44.861927 -0.842330 6,875 350 285 3968
2019-05-23 20:37:49 GMT 44.858047 -0.841370 6,675 351 285 3648
2019-05-23 20:37:45 GMT 44.853081 -0.840186 6,450 351 283 3392
2019-05-23 20:37:42 GMT 44.848427 -0.839181 6,250 352 282 3328
2019-05-23 20:37:39 GMT 44.845596 -0.838623 6,125 355 281 3328
2019-05-23 20:37:35 GMT 44.839371 -0.837969 5,875 358 279 3392
2019-05-23 20:37:31 GMT 44.834244 -0.837904 5,650 1 277 3520
2019-05-23 20:37:27 GMT 44.830124 -0.838165 5,450 3 275 3712
2019-05-23 20:37:24 GMT 44.826313 -0.838578 5,250 4 274 4032
2019-05-23 20:37:20 GMT 44.821014 -0.839081 4,975 1 274 4224
2019-05-23 20:37:15 GMT 44.813919 -0.839146 4,450 357 273 4224
2019-05-23 20:37:12 GMT 44.811401 -0.838885 4,450 357 273 4224
2019-05-23 20:37:09 GMT 44.806412 -0.837838 4,175 348 272 3904
2019-05-23 20:37:03 GMT 44.799316 -0.834307 3,825 334 271 3392
2019-05-23 20:36:59 GMT 44.795013 -0.830710 3,600 322 267 3008
2019-05-23 20:36:54 GMT 44.784851 -0.812988 3,100 309 260 2496
2019-05-23 20:36:46 GMT 44.784851 -0.812988 3,050 295 253 1984
2019-05-23 20:36:43 GMT 44.784027 -0.809915 2,975 286 246 1792
2019-05-23 20:36:37 GMT 44.782654 -0.800629 2,800 274 238 1792
2019-05-23 20:36:29 GMT 44.783394 -0.788336 2,575 236 207 1536
2019-05-23 20:36:26 GMT 44.784603 -0.783446 2,500 246 218 896
2019-05-23 20:36:22 GMT 44.785950 -0.779637 2,450 241 212 1024
2019-05-23 20:36:17 GMT 44.788746 -0.773464 2,325 233 204 1536
2019-05-23 20:36:13 GMT 44.791260 -0.769239 2,225 227 198 1600
We lost coverage of the aircraft here for a total of 212 minutes
2019-05-23 17:04:03 GMT 44.852291 -0.681688 450 226 131 -704
2019-05-23 17:03:53 GMT 44.856308 -0.676117 550 226 131 -704
2019-05-23 17:03:47 GMT 44.859238 -0.671735 650 226 132 -704
2019-05-23 17:03:38 GMT 44.862762 -0.666683 750 225 132 -704
2019-05-23 17:03:28 GMT 44.867420 -0.660051 875 226 132 -704
2019-05-23 17:03:17 GMT 44.872009 -0.653490 975 226 135 -768
2019-05-23 17:03:07 GMT 44.876404 -0.647212 1,100 226 135 -768
2019-05-23 17:02:57 GMT 44.880875 -0.640757 1,225 226 137 -704
2019-05-23 17:02:48 GMT 44.884964 -0.634657 1,325 226 144 -704
2019-05-23 17:02:37 GMT 44.889999 -0.627659 1,475 226 156 -1024
2019-05-23 17:02:27 GMT 44.896042 -0.619027 1,675 226 165 -960
2019-05-23 17:02:17 GMT 44.901169 -0.611507 1,800 226 177 -1088
2019-05-23 17:02:07 GMT 44.907173 -0.602707 1,950 226 185 -960
2019-05-23 17:01:56 GMT 44.913460 -0.594133 2,100 226 189 -1088
2019-05-23 17:01:45 GMT 44.920116 -0.584620 2,300 226 190 -1152
2019-05-23 17:01:35 GMT 44.933121 -0.565796 2,675 226 191 -1024
2019-05-23 17:01:24 GMT 44.933121 -0.565796 2,675 226 193 -960
2019-05-23 17:01:14 GMT 44.939762 -0.556484 2,925 226 193 -320
2019-05-23 17:01:05 GMT 44.945663 -0.548009 2,925 226 191 320
2019-05-23 17:00:53 GMT 44.953217 -0.537153 2,925 225 195 -128
2019-05-23 17:00:42 GMT 44.960220 -0.527475 2,975 226 200 -576
2019-05-23 17:00:32 GMT 44.966675 -0.519169 3,125 220 202 -1088
2019-05-23 17:00:22 GMT 44.974724 -0.512338 3,700 208 203 -1216
2019-05-23 17:00:12 GMT 44.984451 -0.510194 3,525 179 204 -1024
2019-05-23 17:00:03 GMT 44.993729 -0.510341 3,675 179 205 -960
2019-05-23 16:59:52 GMT 45.003258 -0.510529 3,825 179 209 -512
2019-05-23 16:59:42 GMT 45.014008 -0.510733 3,900 178 214 -512
2019-05-23 16:59:30 GMT 45.025452 -0.511257 4,000 176 220 -512
2019-05-23 16:59:20 GMT 45.035332 -0.513343 4,100 165 226 -960
2019-05-23 16:59:08 GMT 45.046097 -0.521131 4,325 145 229 -1280
2019-05-23 16:58:58 GMT 45.053192 -0.532314 4,550 123 230 -1408
2019-05-23 16:58:50 GMT 45.058319 -0.545197 4,775 118 230 -1280
2019-05-23 16:58:46 GMT 45.059372 -0.548009 4,800 118 230 -1216
2019-05-23 16:58:43 GMT 45.061203 -0.552652 4,875 118 230 -1216
2019-05-23 16:58:39 GMT 45.063126 -0.557623 4,950 118 230 -1216
2019-05-23 16:58:29 GMT 45.068344 -0.571354 5,150 118 231 -1024
2019-05-23 16:58:22 GMT 45.071640 -0.579856 5,475 118 232 -1152
2019-05-23 16:58:19 GMT 45.073833 -0.585491 5,325 118 232 -1216
2019-05-23 16:58:12 GMT 45.077454 -0.594635 5,425 118 233 -1152
2019-05-23 16:58:08 GMT 45.079147 -0.599082 5,600 119 234 -1088
2019-05-23 16:58:01 GMT 45.083176 -0.609087 5,625 118 235 -1152
2019-05-23 16:57:57 GMT 45.085564 -0.614899 5,725 119 235 -1088
2019-05-23 16:57:50 GMT 45.088589 -0.623005 5,850 119 236 -1088
2019-05-23 16:57:46 GMT 45.090820 -0.628117 5,900 119 237 -960
2019-05-23 16:57:37 GMT 45.096222 -0.642242 6,250 118 239 -1472
2019-05-23 16:57:24 GMT 45.102722 -0.658722 6,400 118 242 -1536
2019-05-23 16:57:18 GMT 45.105862 -0.666817 6,550 118 244 -1472
2019-05-23 16:57:15 GMT 45.108047 -0.672377 6,650 118 243 -1856
2019-05-23 16:57:03 GMT 45.114075 -0.687692 6,975 118 243 -1728
2019-05-23 16:56:53 GMT 45.120010 -0.702455 7,250 118 243 -1600
2019-05-23 16:56:42 GMT 45.127831 -0.722820 7,700 118 233 -1472
2019-05-23 16:56:32 GMT 45.132294 -0.734972 7,925 118 232 -960
2019-05-23 16:56:24 GMT 45.135048 -0.742180 8,000 118 234 -128
2019-05-23 16:56:20 GMT 45.136677 -0.746534 8,000 118 239 -64
2019-05-23 16:56:11 GMT 45.141861 -0.760018 8,000 118 244 0
2019-05-23 16:56:05 GMT 45.145111 -0.768716 8,000 117 291 -64
2019-05-23 16:56:01 GMT 45.147198 -0.774000 8,000 118 252 0
2019-05-23 16:55:49 GMT 45.154312 -0.792193 8,000 118 264 0
2019-05-23 16:55:39 GMT 45.159908 -0.807294 8,000 118 272 64
2019-05-23 16:55:28 GMT 45.166809 -0.825021 8,000 118 284 0
2019-05-23 16:55:17 GMT 45.173080 -0.841928 8,000 117 291 -64
2019-05-23 16:55:14 GMT 45.174957 -0.847059 8,000 117 292 -128
2019-05-23 16:55:08 GMT 45.179787 -0.859613 8,025 117 294 0
2019-05-23 16:55:03 GMT 45.184387 -0.872367 8,025 117 295 64
2019-05-23 16:54:57 GMT 45.186768 -0.878973 8,000 117 300 0
2019-05-23 16:54:52 GMT 45.189095 -0.885270 8,000 117 303 0
2019-05-23 16:54:45 GMT 45.193405 -0.897217 8,000 117 311 128
2019-05-23 16:54:41 GMT 45.196335 -0.905260 8,000 117 317 0
2019-05-23 16:54:35 GMT 45.200825 -0.917492 8,000 117 324 0
2019-05-23 16:54:30 GMT 45.203854 -0.925866 8,000 117 328 0
2019-05-23 16:54:24 GMT 45.208927 -0.940001 8,000 117 338 64
2019-05-23 16:54:20 GMT 45.211349 -0.946721 8,000 117 342 64
2019-05-23 16:54:11 GMT 45.218655 -0.966596 8,000 118 360 -256
2019-05-23 16:54:08 GMT 45.219910 -0.969478 8,000 118 358 -128
2019-05-23 16:54:02 GMT 45.225037 -0.982819 8,025 119 366 -384
2019-05-23 16:53:56 GMT 45.230434 -0.995669 8,075 121 371 -960
2019-05-23 16:53:52 GMT 45.234764 -1.004646 8,175 124 376 -1408
2019-05-23 16:53:45 GMT 45.241699 -1.018178 8,325 127 381 -1856
2019-05-23 16:53:40 GMT 45.246449 -1.026887 8,475 127 383 -2240
2019-05-23 16:53:34 GMT 45.252731 -1.038470 8,700 127 385 -2688
2019-05-23 16:53:31 GMT 45.257339 -1.047051 8,900 127 388 -3136
2019-05-23 16:53:23 GMT 45.265255 -1.061587 9,300 127 389 -4096
2019-05-23 16:53:19 GMT 45.269444 -1.068822 9,550 127 392 -3776
2019-05-23 16:53:09 GMT 45.280655 -1.089674 10,175 127 397 -4032
2019-05-23 16:53:06 GMT 45.284912 -1.097129 10,425 127 397 -4224
2019-05-23 16:52:59 GMT 45.292767 -1.111562 10,925 127 397 -4288
2019-05-23 16:52:49 GMT 45.304779 -1.133936 11,600 127 400 -3008
2019-05-23 16:52:37 GMT 45.317001 -1.156376 12,025 127 406 -2048
2019-05-23 16:52:28 GMT 45.327637 -1.176341 12,775 126 415 -2816
2019-05-23 16:52:16 GMT 45.341400 -1.201826 12,825 126 415 -2944
2019-05-23 16:52:05 GMT 45.353844 -1.225779 13,400 126 415 -3264
2019-05-23 16:51:54 GMT 45.366413 -1.249628 13,950 126 417 -2624
2019-05-23 16:51:43 GMT 45.379623 -1.274741 14,400 126 422 -2240
2019-05-23 16:51:31 GMT 45.393356 -1.300441 14,875 128 425 -2880
2019-05-23 16:51:20 GMT 45.407684 -1.324310 15,400 132 427 -2944
2019-05-23 16:51:09 GMT 45.423393 -1.347165 16,050 136 424 -4224
2019-05-23 16:50:57 GMT 45.440525 -1.370009 16,875 136 420 -3904
2019-05-23 16:50:45 GMT 45.456539 -1.392182 17,575 135 420 -3264
2019-05-23 16:50:39 GMT 45.465057 -1.403771 18,475 135 421 -2880
2019-05-23 16:50:33 GMT 45.473511 -1.415732 18,325 135 421 -2880
2019-05-23 16:50:30 GMT 45.477116 -1.420787 18,325 135 421 -2880
2019-05-23 16:50:22 GMT 45.488617 -1.436855 18,675 135 424 -2944
2019-05-23 16:50:19 GMT 45.493835 -1.443852 18,850 135 424 -3008
2019-05-23 16:50:11 GMT 45.504627 -1.458837 19,250 135 425 -2944
2019-05-23 16:50:06 GMT 45.513100 -1.470627 19,525 135 425 -3072
2019-05-23 16:49:59 GMT 45.521210 -1.482173 19,850 135 425 -3712
2019-05-23 16:49:51 GMT 45.531532 -1.496753 20,325 135 423 -3968
2019-05-23 16:49:47 GMT 45.537552 -1.504800 20,600 135 422 -3584
2019-05-23 16:49:39 GMT 45.549042 -1.521271 21,050 135 422 -3008
2019-05-23 16:49:35 GMT 45.553738 -1.528130 21,200 135 423 -2880
2019-05-23 16:49:31 GMT 45.560394 -1.537399 21,450 135 423 -2688
2019-05-23 16:49:23 GMT 45.573242 -1.555733 21,800 135 429 -1792
2019-05-23 16:49:11 GMT 45.589096 -1.577275 22,100 136 435 -1792
2019-05-23 16:49:01 GMT 45.604706 -1.597104 22,450 139 439 -2304
2019-05-23 16:48:50 GMT 45.620636 -1.615660 22,850 141 441 -3072
2019-05-23 16:48:45 GMT 45.629608 -1.625508 23,125 141 441 -3008
2019-05-23 16:48:40 GMT 45.637161 -1.634082 23,375 141 441 -2944
2019-05-23 16:48:37 GMT 45.648102 -1.646274 23,700 141 443 -2816
2019-05-23 16:48:28 GMT 45.661507 -1.661270 24,100 141 448 -1856
2019-05-23 16:48:25 GMT 45.661507 -1.661270 24,475 141 446 -1984
2019-05-23 16:48:16 GMT 45.674698 -1.676219 24,325 141 450 -1920
2019-05-23 16:48:11 GMT 45.682922 -1.685234 24,475 141 454 -2368
2019-05-23 16:48:05 GMT 45.694328 -1.698006 24,850 141 456 -2816
2019-05-23 16:48:02 GMT 45.698284 -1.702263 24,850 141 456 -2816
2019-05-23 16:47:58 GMT 45.706245 -1.711395 25,550 142 458 -2944
2019-05-23 16:47:55 GMT 45.709595 -1.714966 25,325 142 458 -2944
2019-05-23 16:47:52 GMT 45.714569 -1.720700 25,325 142 458 -3392
2019-05-23 16:47:44 GMT 45.728775 -1.736526 25,900 142 456 -4416
2019-05-23 16:47:41 GMT 45.734081 -1.742638 26,050 140 449 -4864
2019-05-23 16:47:31 GMT 45.749908 -1.760147 26,800 140 449 -4864
2019-05-23 16:47:20 GMT 45.766708 -1.782130 27,850 127 440 -4992
2019-05-23 16:47:14 GMT 45.775360 -1.796131 28,175 127 440 -4992
2019-05-23 16:47:08 GMT 45.793110 -1.832726 28,775 122 436 -3968
2019-05-23 16:46:58 GMT 45.793110 -1.832726 29,750 118 436 -2944
2019-05-23 16:46:50 GMT 45.800583 -1.854010 29,825 113 438 -1536
2019-05-23 16:46:46 GMT 45.806564 -1.874886 30,075 99 459 -896
2019-05-23 16:46:34 GMT 45.812119 -1.900300 30,050 105 449 -384
2019-05-23 16:46:25 GMT 45.815781 -1.925491 30,175 98 460 -960
2019-05-23 16:46:22 GMT 45.817039 -1.937714 30,175 98 460 -960
2019-05-23 16:46:13 GMT 45.818157 -1.963463 30,375 92 469 -1728
2019-05-23 16:46:05 GMT 45.817703 -1.996564 32,925 85 465 -3840
2019-05-23 16:45:54 GMT 45.816109 -2.029655 31,175 85 473 -3520
2019-05-23 16:45:44 GMT 45.814804 -2.054512 31,800 85 468 -3840
2019-05-23 16:45:41 GMT 45.814480 -2.060692 31,925 85 468 -3840
2019-05-23 16:45:33 GMT 45.813408 -2.085274 32,525 85 463 -3264
2019-05-23 16:45:30 GMT 45.812756 -2.095093 32,650 86 463 -3136
2019-05-23 16:45:23 GMT 45.811707 -2.116476 32,975 86 463 -2368
2019-05-23 16:45:18 GMT 45.811081 -2.130524 33,150 86 463 -2048
2019-05-23 16:45:10 GMT 45.810104 -2.154191 33,375 86 464 -2368
2019-05-23 16:45:07 GMT 45.809635 -2.164787 33,550 86 464 -2240
2019-05-23 16:45:03 GMT 45.808960 -2.179982 33,750 86 467 -1856
2019-05-23 16:44:55 GMT 45.807678 -2.201084 33,975 84 468 -2176
2019-05-23 16:44:51 GMT 45.806843 -2.212852 34,100 81 470 -2240
2019-05-23 16:44:47 GMT 45.805027 -2.229881 34,325 80 472 -2176
2019-05-23 16:44:44 GMT 45.804291 -2.234378 34,925 68 475 -3200
2019-05-23 16:44:41 GMT 45.802414 -2.246369 34,525 74 475 -2240
2019-05-23 16:44:34 GMT 45.798203 -2.266935 34,775 71 475 -2624
2019-05-23 16:44:31 GMT 45.796234 -2.275242 34,900 70 475 -2944
2019-05-23 16:44:25 GMT 45.790878 -2.293798 35,250 65 474 -3136
2019-05-23 16:44:20 GMT 45.786499 -2.306854 35,700 54 473 -704
2019-05-23 16:44:15 GMT 45.779984 -2.323943 35,725 60 472 -1728
2019-05-23 16:44:11 GMT 45.776596 -2.332518 35,800 57 473 -1152
2019-05-23 16:44:08 GMT 45.773373 -2.339264 35,875 54 473 -704
2019-05-23 16:44:04 GMT 45.766479 -2.353151 35,950 52 474 -512
2019-05-23 16:44:00 GMT 45.762817 -2.359984 35,975 46 474 64
2019-05-23 16:43:57 GMT 45.759384 -2.365879 36,000 51 474 -384
2019-05-23 16:43:53 GMT 45.750732 -2.379880 36,025 44 473 64
2019-05-23 16:43:49 GMT 45.747711 -2.384435 36,025 45 473 64
2019-05-23 16:43:41 GMT 45.734894 -2.401518 36,025 39 472 0
2019-05-23 16:43:38 GMT 45.729195 -2.408340 36,025 38 472 0
2019-05-23 16:43:30 GMT 45.714157 -2.423892 36,025 33 470 0
2019-05-23 16:43:27 GMT 45.709625 -2.427778 36,025 31 469 64
2019-05-23 16:43:19 GMT 45.694977 -2.439720 36,000 27 468 64
2019-05-23 16:43:15 GMT 45.687252 -2.445213 36,000 24 467 0
2019-05-23 16:43:09 GMT 45.675240 -2.452354 36,000 20 465 0
2019-05-23 16:43:04 GMT 45.665131 -2.457454 36,000 18 463 0
2019-05-23 16:42:59 GMT 45.653641 -2.462009 36,000 11 459 0
2019-05-23 16:42:53 GMT 45.642059 -2.465761 36,000 11 459 0
2019-05-23 16:42:48 GMT 45.631153 -2.468353 36,000 7 457 -64
2019-05-23 16:42:42 GMT 45.619263 -2.470450 36,000 6 458 0
2019-05-23 16:42:36 GMT 45.605988 -2.472795 36,000 7 457 0
2019-05-23 16:42:30 GMT 45.593819 -2.474945 36,000 7 457 0
2019-05-23 16:42:27 GMT 45.587910 -2.475975 36,000 7 457 64
2019-05-23 16:42:18 GMT 45.568638 -2.479546 36,000 7 457 0
2019-05-23 16:42:14 GMT 45.560211 -2.480850 36,000 7 457 0
2019-05-23 16:42:07 GMT 45.544941 -2.483446 36,000 7 457 0
2019-05-23 16:42:03 GMT 45.536957 -2.484872 36,000 7 457 0
2019-05-23 16:41:59 GMT 45.528763 -2.486311 36,000 6 457 0
2019-05-23 16:41:56 GMT 45.520340 -2.487815 36,000 6 457 0
2019-05-23 16:41:53 GMT 45.515305 -2.488665 36,000 6 457 0
2019-05-23 16:41:48 GMT 45.505650 -2.490279 36,000 6 457 -64
2019-05-23 16:41:45 GMT 45.496433 -2.491887 36,000 6 457 0
2019-05-23 16:41:42 GMT 45.490566 -2.492892 36,000 6 457 -64
2019-05-23 16:41:35 GMT 45.467896 -2.496777 36,000 6 457 0
2019-05-23 16:41:31 GMT 45.467896 -2.496777 36,000 6 457 0
2019-05-23 16:41:25 GMT 45.457005 -2.498653 36,000 6 457 0
2019-05-23 16:41:22 GMT 45.437302 -2.502071 36,000 6 457 0
2019-05-23 16:41:15 GMT 45.429749 -2.503379 36,000 6 457 0
2019-05-23 16:41:12 GMT 45.429749 -2.503379 36,000 6 457 0
2019-05-23 16:41:03 GMT 45.411942 -2.506387 36,000 6 457 0
2019-05-23 16:41:00 GMT 45.406265 -2.507368 36,000 6 457 0
2019-05-23 16:40:55 GMT 45.393677 -2.509526 36,000 6 457 0
2019-05-23 16:40:51 GMT 45.385300 -2.510965 36,000 6 457 0
2019-05-23 16:40:45 GMT 45.371441 -2.513257 36,000 6 457 0
2019-05-23 16:40:41 GMT 45.364738 -2.514395 36,000 6 457 0
2019-05-23 16:40:37 GMT 45.356358 -2.515802 36,000 6 457 0
2019-05-23 16:40:33 GMT 45.349228 -2.517046 36,000 6 457 0
2019-05-23 16:40:29 GMT 45.339600 -2.518683 36,000 6 457 0
2019-05-23 16:40:23 GMT 45.324516 -2.521228 36,000 6 457 0
2019-05-23 16:40:18 GMT 45.318237 -2.522278 36,000 6 457 0
2019-05-23 16:40:14 GMT 45.307758 -2.524109 36,000 6 456 0
2019-05-23 16:40:08 GMT 45.286808 -2.527659 36,000 6 456 0
2019-05-23 16:40:00 GMT 45.280106 -2.528798 36,000 6 457 0
2019-05-23 16:39:57 GMT 45.273788 -2.529864 36,000 6 457 0
2019-05-23 16:39:52 GMT 45.262070 -2.531891 36,000 6 457 0
2019-05-23 16:39:47 GMT 45.251816 -2.533787 36,000 7 456 0
2019-05-23 16:39:43 GMT 45.241791 -2.535291 36,000 6 457 0
2019-05-23 16:39:39 GMT 45.232727 -2.536861 36,000 6 456 0
2019-05-23 16:39:36 GMT 45.229385 -2.537646 36,000 6 456 0
2019-05-23 16:39:32 GMT 45.220379 -2.538981 36,000 6 456 0
2019-05-23 16:39:26 GMT 45.207596 -2.541242 36,000 7 456 0
2019-05-23 16:39:17 GMT 45.189835 -2.544316 36,000 7 456 0
2019-05-23 16:39:14 GMT 45.183697 -2.545412 36,000 7 456 0
2019-05-23 16:39:10 GMT 45.175316 -2.547019 36,000 7 456 0
2019-05-23 16:39:01 GMT 45.156044 -2.550168 36,000 6 456 0
2019-05-23 16:38:51 GMT 45.134674 -2.553798 36,000 6 457 0
2019-05-23 16:38:41 GMT 45.112061 -2.557591 36,000 6 457 64
2019-05-23 16:38:29 GMT 45.089218 -2.561449 36,000 6 457 64
2019-05-23 16:38:19 GMT 45.067612 -2.565177 35,975 6 457 0
2019-05-23 16:38:11 GMT 45.048157 -2.568447 35,975 6 457 0
2019-05-23 16:37:57 GMT 45.021515 -2.573024 35,975 6 456 -64
2019-05-23 16:37:46 GMT 44.998032 -2.577013 36,000 6 456 -64
2019-05-23 16:37:38 GMT 44.980915 -2.579978 36,000 6 456 0
2019-05-23 16:37:35 GMT 44.975700 -2.580849 36,000 6 456 0
2019-05-23 16:37:24 GMT 44.953121 -2.584735 36,000 6 456 0
2019-05-23 16:37:16 GMT 44.935711 -2.587749 36,000 6 456 0
2019-05-23 16:37:13 GMT 44.929276 -2.588784 36,000 6 456 0
2019-05-23 16:37:05 GMT 44.913528 -2.591531 36,000 6 456 0
2019-05-23 16:37:02 GMT 44.905838 -2.592773 36,000 6 456 0
2019-05-23 16:36:56 GMT 44.892609 -2.594997 36,000 6 456 0
2019-05-23 16:36:53 GMT 44.885925 -2.596174 36,000 6 456 0
2019-05-23 16:36:50 GMT 44.881336 -2.596927 36,000 6 456 0
2019-05-23 16:36:45 GMT 44.871983 -2.598468 36,000 6 455 0
2019-05-23 16:36:39 GMT 44.859192 -2.600621 36,000 6 455 0
2019-05-23 16:36:35 GMT 44.849991 -2.602190 36,000 6 455 0
2019-05-23 16:36:28 GMT 44.835754 -2.604545 36,000 6 455 0
2019-05-23 16:36:23 GMT 44.825546 -2.606245 36,000 6 455 0
2019-05-23 16:36:14 GMT 44.806065 -2.609588 36,000 6 456 0
2019-05-23 16:36:03 GMT 44.782196 -2.613634 36,000 6 456 0
2019-05-23 16:35:54 GMT 44.762970 -2.617035 36,000 6 456 0
2019-05-23 16:35:42 GMT 44.739532 -2.620828 36,000 6 456 0
2019-05-23 16:35:32 GMT 44.718174 -2.624460 36,000 6 456 -64
2019-05-23 16:35:19 GMT 44.690567 -2.629082 36,000 6 456 -64
2019-05-23 16:35:04 GMT 44.660446 -2.634173 36,025 6 456 -64
2019-05-23 16:34:55 GMT 44.641617 -2.637373 36,025 6 456 -64
2019-05-23 16:34:45 GMT 44.619434 -2.641073 36,025 6 456 0
2019-05-23 16:34:33 GMT 44.595974 -2.645159 36,025 6 456 0
2019-05-23 16:34:29 GMT 44.585918 -2.646633 36,025 6 456 0
2019-05-23 16:34:23 GMT 44.574001 -2.648643 36,025 6 457 0
2019-05-23 16:34:18 GMT 44.564529 -2.650255 36,025 6 457 0
2019-05-23 16:34:12 GMT 44.551563 -2.652394 36,025 6 457 0
2019-05-23 16:34:01 GMT 44.527634 -2.656403 36,025 6 457 0
2019-05-23 16:33:53 GMT 44.508736 -2.659562 36,025 6 457 0
2019-05-23 16:33:49 GMT 44.502869 -2.660567 36,025 6 458 0
2019-05-23 16:33:38 GMT 44.480392 -2.664315 36,025 6 458 0
2019-05-23 16:33:26 GMT 44.454346 -2.668631 36,025 6 458 0
2019-05-23 16:33:15 GMT 44.430573 -2.672625 36,025 6 458 0
2019-05-23 16:33:05 GMT 44.395477 -2.678375 36,000 6 458 64
2019-05-23 16:32:53 GMT 44.382202 -2.680664 36,000 6 458 64
2019-05-23 16:32:43 GMT 44.363304 -2.683813 36,000 6 458 0
2019-05-23 16:32:32 GMT 44.338959 -2.687832 36,000 6 457 0
2019-05-23 16:32:21 GMT 44.318802 -2.691181 36,000 6 457 0
2019-05-23 16:32:16 GMT 44.305801 -2.693351 36,000 6 456 0
2019-05-23 16:32:10 GMT 44.294907 -2.695182 36,000 6 456 0
2019-05-23 16:32:05 GMT 44.281746 -2.697345 36,000 6 456 0
2019-05-23 16:31:56 GMT 44.265175 -2.700091 36,000 6 456 0
2019-05-23 16:31:49 GMT 44.251812 -2.702369 36,000 6 455 0
2019-05-23 16:31:44 GMT 44.240082 -2.704311 35,975 6 455 0
2019-05-23 16:31:38 GMT 44.229237 -2.706053 35,975 6 455 0
2019-05-23 16:31:33 GMT 44.217548 -2.707996 35,975 6 455 0
2019-05-23 16:31:28 GMT 44.206284 -2.709896 35,975 6 455 0
2019-05-23 16:31:16 GMT 44.182068 -2.713879 36,000 6 454 0
2019-05-23 16:31:04 GMT 44.157497 -2.717939 36,000 6 453 0
2019-05-23 16:30:52 GMT 44.131256 -2.722310 36,000 6 453 0
2019-05-23 16:30:43 GMT 44.114204 -2.725133 36,000 6 453 0
2019-05-23 16:30:31 GMT 44.085110 -2.729972 36,000 6 453 0
2019-05-23 16:30:20 GMT 44.062672 -2.733568 36,000 6 453 0
2019-05-23 16:30:08 GMT 44.039795 -2.737320 36,000 6 452 0
2019-05-23 16:29:59 GMT 44.021938 -2.740304 36,000 6 452 0
2019-05-23 16:29:55 GMT 44.012421 -2.741855 36,000 6 452 0
2019-05-23 16:29:46 GMT 43.959274 -2.750670 36,000 6 452 0
2019-05-23 16:29:34 GMT 43.959274 -2.750670 36,000 6 452 -64
2019-05-23 16:29:25 GMT 43.951412 -2.751944 36,000 6 452 0
2019-05-23 16:29:19 GMT 43.939362 -2.753928 36,000 6 452 -64
2019-05-23 16:29:13 GMT 43.926910 -2.755972 36,000 6 452 -64
2019-05-23 16:29:10 GMT 43.917801 -2.757504 36,000 6 452 0
2019-05-23 16:29:04 GMT 43.908257 -2.759072 36,000 6 452 0
2019-05-23 16:29:01 GMT 43.900406 -2.760379 36,000 6 451 0
2019-05-23 16:28:58 GMT 43.896240 -2.761081 36,000 6 451 0
2019-05-23 16:28:51 GMT 43.880493 -2.763700 36,000 6 451 0
2019-05-23 16:28:44 GMT 43.863922 -2.766383 36,000 6 451 0
2019-05-23 16:28:40 GMT 43.858540 -2.767312 36,000 6 451 0
2019-05-23 16:28:33 GMT 43.837032 -2.770778 36,000 6 451 0
2019-05-23 16:28:22 GMT 43.813850 -2.774833 36,000 7 451 0
2019-05-23 16:28:09 GMT 43.791183 -2.779669 36,000 10 451 -64
2019-05-23 16:28:00 GMT 43.775120 -2.784119 36,000 12 453 -64
2019-05-23 16:27:57 GMT 43.769390 -2.785754 36,000 12 453 -64
2019-05-23 16:27:48 GMT 43.751862 -2.791358 36,000 13 453 0
2019-05-23 16:27:45 GMT 43.745743 -2.793339 36,000 13 453 0
2019-05-23 16:27:38 GMT 43.730240 -2.798375 36,000 13 453 0
2019-05-23 16:27:34 GMT 43.722519 -2.800939 36,000 13 453 0
2019-05-23 16:27:28 GMT 43.710083 -2.805110 36,000 13 452 0
2019-05-23 16:27:19 GMT 43.691975 -2.810996 36,000 13 453 0
2019-05-23 16:27:15 GMT 43.683426 -2.813777 36,000 13 453 0
2019-05-23 16:27:12 GMT 43.677311 -2.815770 36,000 13 453 0
2019-05-23 16:27:07 GMT 43.665665 -2.819590 36,000 13 452 0
2019-05-23 16:26:59 GMT 43.649799 -2.824663 36,000 13 452 0
2019-05-23 16:26:56 GMT 43.642685 -2.826936 36,000 13 452 0
2019-05-23 16:26:48 GMT 43.628429 -2.831530 36,000 13 452 0
2019-05-23 16:26:44 GMT 43.619446 -2.834407 36,000 13 451 0
2019-05-23 16:26:38 GMT 43.606842 -2.838497 36,000 13 451 0
2019-05-23 16:26:27 GMT 43.586117 -2.845197 36,000 13 452 0
2019-05-23 16:26:23 GMT 43.577316 -2.848075 36,000 13 452 0
2019-05-23 16:26:17 GMT 43.564728 -2.852166 36,000 13 452 0
2019-05-23 16:26:13 GMT 43.555206 -2.855203 36,000 13 452 0
2019-05-23 16:26:05 GMT 43.541378 -2.859650 36,000 13 451 0
2019-05-23 16:25:58 GMT 43.526901 -2.864423 36,000 13 451 0
2019-05-23 16:25:54 GMT 43.518616 -2.866974 36,000 13 450 0
2019-05-23 16:25:51 GMT 43.510513 -2.869459 36,000 13 450 0
2019-05-23 16:25:43 GMT 43.495850 -2.874298 36,000 13 450 0
2019-05-23 16:25:39 GMT 43.489380 -2.876260 36,000 13 450 0
2019-05-23 16:25:35 GMT 43.480629 -2.879137 36,000 13 450 0
2019-05-23 16:25:29 GMT 43.467640 -2.883453 36,000 13 450 0
2019-05-23 16:25:25 GMT 43.458939 -2.886147 36,000 13 450 0
2019-05-23 16:25:19 GMT 43.445297 -2.890362 36,000 13 450 0
2019-05-23 16:25:15 GMT 43.438660 -2.892598 36,000 13 450 0
2019-05-23 16:25:07 GMT 43.416733 -2.899560 36,000 13 449 0
2019-05-23 16:24:57 GMT 43.400932 -2.904641 36,000 13 449 0
2019-05-23 16:24:51 GMT 43.390823 -2.907928 36,000 13 449 0
2019-05-23 16:24:45 GMT 43.379471 -2.911569 36,000 12 450 0
2019-05-23 16:24:40 GMT 43.369720 -2.914379 36,000 11 449 0
2019-05-23 16:24:35 GMT 43.358368 -2.917637 36,000 10 448 0
2019-05-23 16:24:32 GMT 43.352646 -2.919106 36,000 10 448 0
2019-05-23 16:24:22 GMT 43.332230 -2.923641 36,000 8 446 0
2019-05-23 16:24:17 GMT 43.322212 -2.925568 36,000 7 446 0
2019-05-23 16:24:12 GMT 43.311413 -2.927268 36,000 6 445 0
2019-05-23 16:24:07 GMT 43.302380 -2.928576 36,000 5 445 0
2019-05-23 16:24:01 GMT 43.280266 -2.930603 36,000 2 443 0
2019-05-23 16:23:52 GMT 43.267979 -2.931257 36,000 1 442 0
2019-05-23 16:23:46 GMT 43.259399 -2.931370 36,000 0 442 0
2019-05-23 16:23:39 GMT 43.215050 -2.929753 36,000 358 440 0
2019-05-23 16:23:30 GMT 43.215050 -2.929753 36,000 358 439 0
2019-05-23 16:23:21 GMT 43.206108 -2.929361 36,000 358 439 0
2019-05-23 16:23:10 GMT 43.184975 -2.927791 36,000 358 439 0
2019-05-23 16:23:05 GMT 43.174850 -2.927154 36,000 358 438 -64
2019-05-23 16:22:59 GMT 43.160629 -2.926222 36,000 358 439 0
2019-05-23 16:22:48 GMT 43.129810 -2.924456 36,000 358 439 0
2019-05-23 16:22:39 GMT 43.121899 -2.923933 36,000 358 438 0
2019-05-23 16:22:32 GMT 43.107929 -2.922886 36,000 358 438 0
2019-05-23 16:22:29 GMT 43.100620 -2.922363 36,000 358 438 0
2019-05-23 16:22:22 GMT 43.086052 -2.921382 36,000 358 438 -64
2019-05-23 16:22:18 GMT 43.079956 -2.921022 36,000 358 438 -64
2019-05-23 16:22:08 GMT 43.059330 -2.919617 36,000 358 438 -64
2019-05-23 16:21:57 GMT 43.037453 -2.918309 36,025 358 438 0
2019-05-23 16:21:54 GMT 43.032166 -2.917828 36,000 358 438 0
2019-05-23 16:21:47 GMT 43.017200 -2.916805 36,000 358 438 -64
2019-05-23 16:21:41 GMT 43.005840 -2.916085 36,025 358 438 0
2019-05-23 16:21:35 GMT 42.993690 -2.915235 36,025 358 438 0
2019-05-23 16:21:32 GMT 42.986801 -2.914826 36,000 358 438 0
2019-05-23 16:21:25 GMT 42.972649 -2.913862 36,025 358 438 0
2019-05-23 16:21:15 GMT 42.951141 -2.912463 36,025 358 438 0
2019-05-23 16:21:09 GMT 42.941040 -2.911835 36,025 358 438 0
2019-05-23 16:21:04 GMT 42.930908 -2.911185 36,025 358 438 0
2019-05-23 16:20:57 GMT 42.916882 -2.910265 36,025 358 438 0
2019-05-23 16:20:54 GMT 42.909805 -2.909780 36,000 358 438 0
2019-05-23 16:20:44 GMT 42.888107 -2.908375 36,000 358 439 0
2019-05-23 16:20:38 GMT 42.876331 -2.907780 36,000 358 438 0
2019-05-23 16:20:32 GMT 42.864441 -2.906842 36,000 358 438 0
2019-05-23 16:20:27 GMT 42.855106 -2.906211 36,000 358 438 0
2019-05-23 16:20:22 GMT 42.843746 -2.905491 36,000 358 438 0
2019-05-23 16:20:15 GMT 42.831596 -2.904837 36,000 358 438 0
2019-05-23 16:20:11 GMT 42.819855 -2.903904 36,000 358 438 0
2019-05-23 16:20:02 GMT 42.803696 -2.902888 36,000 358 438 0
2019-05-23 16:19:59 GMT 42.798592 -2.902562 36,000 358 438 0
2019-05-23 16:19:56 GMT 42.791519 -2.902263 36,000 358 438 0
2019-05-23 16:19:53 GMT 42.783833 -2.901796 36,000 358 438 0
2019-05-23 16:19:49 GMT 42.777550 -2.901221 36,000 358 438 0
2019-05-23 16:19:43 GMT 42.765259 -2.900454 36,000 358 437 0
2019-05-23 16:19:34 GMT 42.745056 -2.899369 36,000 358 437 0
2019-05-23 16:19:23 GMT 42.724594 -2.897894 36,000 358 437 0
2019-05-23 16:19:11 GMT 42.700600 -2.896367 36,000 358 437 0
2019-05-23 16:19:00 GMT 42.680145 -2.894960 36,000 358 437 0
2019-05-23 16:18:50 GMT 42.657120 -2.893492 36,000 358 437 0
2019-05-23 16:18:41 GMT 42.639587 -2.892338 36,000 358 437 0
2019-05-23 16:18:38 GMT 42.633564 -2.892151 36,000 358 437 0
2019-05-23 16:18:31 GMT 42.620224 -2.891090 36,000 358 436 0
2019-05-23 16:18:26 GMT 42.610939 -2.890682 36,000 358 436 0
2019-05-23 16:18:21 GMT 42.598228 -2.889724 36,000 358 436 0
2019-05-23 16:18:16 GMT 42.590176 -2.889213 36,000 358 436 0
2019-05-23 16:18:09 GMT 42.576050 -2.888343 36,000 358 436 0
2019-05-23 16:18:04 GMT 42.566208 -2.887906 36,000 358 436 0
2019-05-23 16:17:59 GMT 42.554520 -2.887041 36,000 358 436 0
2019-05-23 16:17:53 GMT 42.543640 -2.886346 36,000 358 435 0
2019-05-23 16:17:48 GMT 42.534409 -2.885891 36,000 358 435 64
2019-05-23 16:17:39 GMT 42.513885 -2.884411 36,000 358 435 64
2019-05-23 16:17:28 GMT 42.492695 -2.883592 36,000 0 436 0
2019-05-23 16:17:17 GMT 42.470722 -2.883847 36,000 1 437 0
2019-05-23 16:17:06 GMT 42.448147 -2.885252 36,000 3 438 -64
2019-05-23 16:16:56 GMT 42.426498 -2.888063 36,000 9 439 0
2019-05-23 16:16:51 GMT 42.418259 -2.889340 36,000 7 438 -64
2019-05-23 16:16:44 GMT 42.404572 -2.891895 36,000 8 439 0
2019-05-23 16:16:32 GMT 42.380692 -2.897325 36,000 9 440 0
2019-05-23 16:16:25 GMT 42.364059 -2.901389 36,000 9 440 0
2019-05-23 16:16:14 GMT 42.344009 -2.906133 36,000 9 440 -64
2019-05-23 16:16:11 GMT 42.336777 -2.907819 36,000 9 440 0
2019-05-23 16:16:01 GMT 42.315903 -2.912501 36,000 9 440 -64
2019-05-23 16:15:53 GMT 42.302399 -2.915684 36,000 9 441 -64
2019-05-23 16:15:49 GMT 42.292988 -2.918020 36,000 9 440 0
2019-05-23 16:15:38 GMT 42.272923 -2.922555 36,000 9 440 64
2019-05-23 16:15:31 GMT 42.250854 -2.927919 36,000 9 440 64
2019-05-23 16:15:27 GMT 42.250854 -2.927919 36,000 9 440 64
2019-05-23 16:15:20 GMT 42.237167 -2.931102 36,000 9 441 64
2019-05-23 16:15:15 GMT 42.226730 -2.933350 35,975 9 441 64
2019-05-23 16:15:09 GMT 42.213661 -2.936607 35,975 9 441 0
2019-05-23 16:15:05 GMT 42.205421 -2.938523 35,975 9 441 0
2019-05-23 16:14:57 GMT 42.190151 -2.942100 36,000 9 440 0
2019-05-23 16:14:54 GMT 42.183334 -2.943649 35,975 9 440 0
2019-05-23 16:14:50 GMT 42.173347 -2.945869 35,975 9 440 0
2019-05-23 16:14:42 GMT 42.160500 -2.948871 35,975 9 440 -64
2019-05-23 16:14:36 GMT 42.148041 -2.951889 36,000 9 439 0
2019-05-23 16:14:31 GMT 42.138851 -2.953789 36,000 9 439 0
2019-05-23 16:14:24 GMT 42.123631 -2.957494 36,000 9 439 -64
2019-05-23 16:14:18 GMT 42.111237 -2.960378 36,000 9 438 0
2019-05-23 16:14:14 GMT 42.104187 -2.962064 36,000 9 438 0
2019-05-23 16:14:11 GMT 42.097420 -2.963626 36,000 9 438 0
2019-05-23 16:14:04 GMT 42.085411 -2.966245 36,000 9 438 -64
2019-05-23 16:13:59 GMT 42.074051 -2.969055 36,000 9 438 -64
2019-05-23 16:13:55 GMT 42.065254 -2.970908 36,000 9 438 0
2019-05-23 16:13:49 GMT 42.054874 -2.973462 36,000 9 438 0
2019-05-23 16:13:44 GMT 42.044083 -2.975984 36,000 9 438 0
2019-05-23 16:13:38 GMT 42.030853 -2.978892 36,000 9 438 0
2019-05-23 16:13:34 GMT 42.024078 -2.980478 36,000 9 438 0
2019-05-23 16:13:28 GMT 42.010880 -2.983555 36,000 9 438 0
2019-05-23 16:13:24 GMT 42.003296 -2.985472 36,000 9 439 0
2019-05-23 16:13:17 GMT 41.982903 -2.990134 36,000 9 439 0
2019-05-23 16:13:13 GMT 41.982903 -2.990134 36,000 9 439 0
2019-05-23 16:13:06 GMT 41.961868 -2.995085 36,000 9 438 0
2019-05-23 16:12:55 GMT 41.944496 -2.999076 36,000 9 438 0
2019-05-23 16:12:42 GMT 41.919342 -3.004698 36,000 9 438 0
2019-05-23 16:12:31 GMT 41.898132 -3.009743 36,000 9 438 0
2019-05-23 16:12:20 GMT 41.876175 -3.014623 36,000 9 438 0
2019-05-23 16:12:14 GMT 41.857773 -3.018868 36,000 9 438 0
2019-05-23 16:12:00 GMT 41.835388 -3.024174 36,000 9 438 0
2019-05-23 16:11:48 GMT 41.809799 -3.029855 36,025 9 438 -64
2019-05-23 16:11:38 GMT 41.793182 -3.033912 36,025 9 438 -64
2019-05-23 16:11:28 GMT 41.770252 -3.039125 36,025 9 438 -64
2019-05-23 16:11:18 GMT 41.752842 -3.043085 36,025 9 438 0
2019-05-23 16:11:15 GMT 41.746033 -3.044649 36,025 9 438 0
2019-05-23 16:11:09 GMT 41.734085 -3.047395 36,025 9 438 0
2019-05-23 16:11:05 GMT 41.724865 -3.049536 36,025 9 438 0
2019-05-23 16:10:57 GMT 41.710739 -3.052764 36,025 9 438 0
2019-05-23 16:10:48 GMT 41.692139 -3.057010 36,025 9 438 0
2019-05-23 16:10:45 GMT 41.684780 -3.058479 36,025 9 438 0
2019-05-23 16:10:37 GMT 41.668442 -3.062439 36,025 9 437 0
2019-05-23 16:10:34 GMT 41.664459 -3.063313 36,025 9 437 0
2019-05-23 16:10:26 GMT 41.647705 -3.066996 36,025 9 437 0
2019-05-23 16:10:23 GMT 41.642899 -3.068119 36,025 9 437 0
2019-05-23 16:10:12 GMT 41.621796 -3.073106 36,025 9 437 0
2019-05-23 16:10:04 GMT 41.605499 -3.076859 36,000 9 437 0
2019-05-23 16:10:01 GMT 41.598705 -3.078407 36,000 9 437 64
2019-05-23 16:09:58 GMT 41.593121 -3.079493 36,000 9 437 64
2019-05-23 16:09:54 GMT 41.581993 -3.082176 36,000 9 437 0
2019-05-23 16:09:51 GMT 41.579224 -3.082789 36,000 9 436 0
2019-05-23 16:09:46 GMT 41.568447 -3.085242 36,000 9 436 0
2019-05-23 16:09:43 GMT 41.561466 -3.086903 36,000 9 436 0
2019-05-23 16:09:40 GMT 41.556290 -3.088095 36,000 9 436 0
2019-05-23 16:09:37 GMT 41.549362 -3.089649 36,000 9 436 0
2019-05-23 16:09:33 GMT 41.543171 -3.090927 36,000 9 436 0
2019-05-23 16:09:30 GMT 41.537247 -3.092277 36,000 9 435 0
2019-05-23 16:09:23 GMT 41.523560 -3.095523 36,000 9 435 0
2019-05-23 16:09:18 GMT 41.512863 -3.097953 36,000 9 434 0
2019-05-23 16:09:12 GMT 41.502365 -3.100392 36,000 9 434 0
2019-05-23 16:09:08 GMT 41.494446 -3.101952 36,000 9 434 0
2019-05-23 16:09:02 GMT 41.481628 -3.104824 36,000 9 434 0
2019-05-23 16:08:57 GMT 41.471897 -3.107087 36,000 9 433 0
2019-05-23 16:08:52 GMT 41.461853 -3.109443 36,000 9 433 0
2019-05-23 16:08:49 GMT 41.455326 -3.110855 36,000 9 433 0
2019-05-23 16:08:46 GMT 41.451004 -3.112002 36,000 9 432 0
2019-05-23 16:08:41 GMT 41.439972 -3.114312 36,000 9 432 0
2019-05-23 16:08:38 GMT 41.433865 -3.115838 36,000 9 432 0
2019-05-23 16:08:31 GMT 41.420105 -3.118744 36,000 9 431 0
2019-05-23 16:08:28 GMT 41.413010 -3.120367 36,000 9 431 0
2019-05-23 16:08:20 GMT 41.399277 -3.123439 36,000 9 431 0
2019-05-23 16:08:15 GMT 41.389618 -3.125673 36,000 9 431 0
2019-05-23 16:08:09 GMT 41.376892 -3.128723 36,000 9 430 0
2019-05-23 16:08:05 GMT 41.369625 -3.130230 36,000 9 430 0
2019-05-23 16:07:59 GMT 41.358639 -3.132726 36,000 9 430 0
2019-05-23 16:07:52 GMT 41.342560 -3.136536 36,000 9 430 0
2019-05-23 16:07:49 GMT 41.338852 -3.137158 36,000 9 430 0
2019-05-23 16:07:44 GMT 41.328461 -3.139771 36,000 9 429 -64
2019-05-23 16:07:39 GMT 41.318298 -3.142029 36,000 9 429 -64
2019-05-23 16:07:33 GMT 41.307312 -3.144348 36,000 9 429 -64
2019-05-23 16:07:28 GMT 41.297928 -3.146667 36,000 9 429 0
2019-05-23 16:07:23 GMT 41.286621 -3.149206 36,000 9 428 0
2019-05-23 16:07:18 GMT 41.277264 -3.151328 36,000 9 428 0
2019-05-23 16:07:13 GMT 41.266323 -3.153638 36,000 9 428 0
2019-05-23 16:07:07 GMT 41.256783 -3.155760 36,000 9 428 0
2019-05-23 16:07:01 GMT 41.244492 -3.158507 36,000 9 428 0
2019-05-23 16:06:58 GMT 41.235928 -3.160442 36,000 9 427 0
2019-05-23 16:06:51 GMT 41.224056 -3.163251 36,000 9 428 -64
2019-05-23 16:06:46 GMT 41.215630 -3.164999 36,000 9 426 -64
2019-05-23 16:06:40 GMT 41.203583 -3.167908 36,000 9 426 0
2019-05-23 16:06:35 GMT 41.194447 -3.169930 36,000 9 427 0
2019-05-23 16:06:29 GMT 41.182812 -3.172365 36,000 9 426 0
2019-05-23 16:06:25 GMT 41.175175 -3.174300 36,000 9 426 0
2019-05-23 16:06:19 GMT 41.162003 -3.177109 36,000 9 426 0
2019-05-23 16:06:15 GMT 41.155380 -3.178772 36,000 9 426 0
2019-05-23 16:06:08 GMT 41.141006 -3.181853 36,000 9 426 0
2019-05-23 16:06:04 GMT 41.133091 -3.183726 36,000 9 425 0
2019-05-23 16:05:57 GMT 41.120270 -3.186462 36,000 9 425 0
2019-05-23 16:05:54 GMT 41.114090 -3.188049 36,000 9 424 0
2019-05-23 16:05:47 GMT 41.100128 -3.191162 36,000 9 424 64
2019-05-23 16:05:43 GMT 41.093903 -3.192383 35,975 9 424 0
2019-05-23 16:05:36 GMT 41.077011 -3.196228 36,000 9 424 64
2019-05-23 16:05:33 GMT 41.072983 -3.197083 35,975 9 424 64
2019-05-23 16:05:23 GMT 41.053619 -3.201599 35,975 9 424 0
2019-05-23 16:05:15 GMT 41.033237 -3.206010 35,975 9 424 0
2019-05-23 16:05:08 GMT 41.024323 -3.208008 35,975 9 424 0
2019-05-23 16:05:04 GMT 41.015408 -3.210005 35,975 9 424 0
2019-05-23 16:05:01 GMT 41.012150 -3.210879 35,975 9 424 -64
2019-05-23 16:04:56 GMT 41.001488 -3.213314 35,975 9 424 0
2019-05-23 16:04:51 GMT 40.992970 -3.215249 35,975 9 425 0
2019-05-23 16:04:46 GMT 40.981705 -3.217590 35,975 9 425 -64
2019-05-23 16:04:41 GMT 40.972069 -3.219930 36,000 9 424 -64
2019-05-23 16:04:35 GMT 40.961609 -3.222107 36,000 9 423 0
2019-05-23 16:04:32 GMT 40.953873 -3.223877 36,000 9 424 0
2019-05-23 16:04:29 GMT 40.949066 -3.225098 36,000 9 424 0
2019-05-23 16:04:25 GMT 40.939178 -3.227173 36,000 9 424 0
2019-05-23 16:04:20 GMT 40.931847 -3.228857 36,000 9 424 0
2019-05-23 16:04:14 GMT 40.917789 -3.232040 36,000 9 423 0
2019-05-23 16:04:10 GMT 40.912170 -3.233521 36,000 9 424 0
2019-05-23 16:04:03 GMT 40.897476 -3.236633 36,000 9 423 -64
2019-05-23 16:03:59 GMT 40.891296 -3.238220 36,000 9 424 -64
2019-05-23 16:03:54 GMT 40.882050 -3.240295 36,000 9 423 -64
2019-05-23 16:03:49 GMT 40.872211 -3.242465 36,000 9 423 0
2019-05-23 16:03:44 GMT 40.862343 -3.244587 36,000 8 423 0
2019-05-23 16:03:41 GMT 40.855965 -3.245836 36,000 8 423 0
2019-05-23 16:03:38 GMT 40.851498 -3.246834 36,000 8 423 0
2019-05-23 16:03:32 GMT 40.837624 -3.249519 36,000 8 423 0
2019-05-23 16:03:28 GMT 40.832176 -3.250830 36,000 8 423 0
2019-05-23 16:03:23 GMT 40.820984 -3.252930 36,000 8 423 0
2019-05-23 16:03:18 GMT 40.812115 -3.254762 36,000 8 423 0
2019-05-23 16:03:12 GMT 40.801315 -3.257134 36,000 8 423 0
2019-05-23 16:03:07 GMT 40.791641 -3.258972 36,000 8 423 0
2019-05-23 16:03:02 GMT 40.780460 -3.261254 36,000 8 423 0
2019-05-23 16:02:56 GMT 40.769611 -3.263501 36,000 8 423 0
2019-05-23 16:02:50 GMT 40.758224 -3.265991 36,000 8 423 0
2019-05-23 16:02:46 GMT 40.749756 -3.267517 36,000 8 423 0
2019-05-23 16:02:40 GMT 40.737164 -3.270180 36,000 8 423 0
2019-05-23 16:02:35 GMT 40.730183 -3.271554 36,025 8 423 0
2019-05-23 16:02:31 GMT 40.719986 -3.273614 36,000 8 423 0
2019-05-23 16:02:25 GMT 40.709702 -3.275757 36,000 8 423 0
2019-05-23 16:02:20 GMT 40.697735 -3.278233 36,000 8 423 0
2019-05-23 16:02:15 GMT 40.690006 -3.279981 36,000 8 423 0
2019-05-23 16:02:10 GMT 40.681488 -3.281604 36,000 8 423 0
2019-05-23 16:02:04 GMT 40.668732 -3.284180 36,000 8 423 0
2019-05-23 16:02:01 GMT 40.662170 -3.285536 36,000 8 423 0
2019-05-23 16:01:56 GMT 40.653076 -3.287598 36,000 8 423 -64
2019-05-23 16:01:53 GMT 40.648636 -3.288513 36,000 8 423 -64
2019-05-23 16:01:50 GMT 40.641266 -3.290093 36,000 8 423 -64
2019-05-23 16:01:43 GMT 40.629490 -3.292465 36,025 8 423 -64
2019-05-23 16:01:40 GMT 40.621948 -3.293839 36,025 8 423 -64
2019-05-23 16:01:33 GMT 40.609379 -3.296398 36,025 8 423 0
2019-05-23 16:01:30 GMT 40.601650 -3.298021 36,025 8 423 0
2019-05-23 16:01:21 GMT 40.586987 -3.301017 36,025 8 423 0
2019-05-23 16:01:18 GMT 40.580006 -3.302578 36,025 8 423 0
2019-05-23 16:01:12 GMT 40.562408 -3.306073 36,025 8 423 -64
2019-05-23 16:01:09 GMT 40.562408 -3.306073 36,025 8 423 -64
2019-05-23 16:01:01 GMT 40.542709 -3.310059 36,025 8 423 -64
2019-05-23 16:00:58 GMT 40.542709 -3.310059 36,025 8 423 -64
2019-05-23 16:00:51 GMT 40.522614 -3.314148 36,025 8 423 0
2019-05-23 16:00:48 GMT 40.522614 -3.314148 36,025 8 423 0
2019-05-23 16:00:41 GMT 40.509663 -3.316747 36,025 8 423 0
2019-05-23 16:00:38 GMT 40.503296 -3.318115 36,025 8 423 0
2019-05-23 16:00:31 GMT 40.489197 -3.320923 36,025 8 423 0
2019-05-23 16:00:28 GMT 40.483200 -3.322205 36,025 8 423 0
2019-05-23 16:00:20 GMT 40.466766 -3.325500 36,025 8 423 0
2019-05-23 16:00:17 GMT 40.463104 -3.326477 36,025 8 423 0
2019-05-23 16:00:10 GMT 40.449783 -3.328979 36,025 8 423 0
2019-05-23 16:00:07 GMT 40.442444 -3.330668 36,025 8 423 0
2019-05-23 15:59:59 GMT 40.425247 -3.334045 36,025 8 422 0
2019-05-23 15:59:55 GMT 40.418514 -3.335349 36,025 8 422 0
2019-05-23 15:59:52 GMT 40.415222 -3.336243 36,025 8 422 0
2019-05-23 15:59:48 GMT 40.406364 -3.337846 36,025 8 422 0
2019-05-23 15:59:45 GMT 40.401569 -3.338970 36,025 8 422 0
2019-05-23 15:59:39 GMT 40.390163 -3.341155 36,025 8 422 0
2019-05-23 15:59:35 GMT 40.382080 -3.342957 36,025 8 422 0
2019-05-23 15:59:29 GMT 40.369720 -3.345276 36,000 8 421 0
2019-05-23 15:59:25 GMT 40.361252 -3.347046 36,000 8 421 0
2019-05-23 15:59:18 GMT 40.350128 -3.349270 36,000 8 421 0
2019-05-23 15:59:14 GMT 40.330902 -3.353327 36,000 8 420 0
2019-05-23 15:59:09 GMT 40.323624 -3.354675 36,000 8 420 0
2019-05-23 15:59:06 GMT 40.319000 -3.355591 36,000 8 419 0
2019-05-23 15:58:58 GMT 40.310188 -3.357572 36,000 8 419 0
2019-05-23 15:58:54 GMT 40.303299 -3.358945 36,000 8 418 0
2019-05-23 15:58:49 GMT 40.293152 -3.360818 36,000 8 418 0
2019-05-23 15:58:45 GMT 40.283752 -3.362732 36,000 8 417 0
2019-05-23 15:58:42 GMT 40.278992 -3.363647 36,000 8 417 0
2019-05-23 15:58:38 GMT 40.273087 -3.365051 36,000 8 417 0
2019-05-23 15:58:33 GMT 40.263355 -3.366810 36,000 8 417 0
2019-05-23 15:58:29 GMT 40.253220 -3.368958 36,000 8 416 0
2019-05-23 15:58:23 GMT 40.242920 -3.371180 36,000 8 416 0
2019-05-23 15:58:19 GMT 40.234543 -3.372678 36,000 8 415 0
2019-05-23 15:58:12 GMT 40.222778 -3.375061 36,000 8 415 0
2019-05-23 15:58:08 GMT 40.203003 -3.379272 36,000 8 414 0
2019-05-23 15:58:02 GMT 40.203003 -3.379272 35,975 8 414 0
2019-05-23 15:57:57 GMT 40.194321 -3.380855 35,975 8 414 0
2019-05-23 15:57:52 GMT 40.182961 -3.383165 35,975 8 413 0
2019-05-23 15:57:48 GMT 40.175766 -3.384583 35,975 8 413 64
2019-05-23 15:57:43 GMT 40.168213 -3.386108 35,975 8 413 64
2019-05-23 15:57:40 GMT 40.162903 -3.387207 35,975 8 413 64
2019-05-23 15:57:37 GMT 40.155727 -3.388658 35,975 8 412 0
2019-05-23 15:57:32 GMT 40.147396 -3.390343 35,975 8 412 0
2019-05-23 15:57:29 GMT 40.141754 -3.391479 35,975 8 412 -64
2019-05-23 15:57:26 GMT 40.136082 -3.392778 35,975 8 412 -64
2019-05-23 15:57:20 GMT 40.123810 -3.395142 35,975 8 411 0
2019-05-23 15:57:16 GMT 40.109688 -3.397959 35,975 8 411 0
2019-05-23 15:57:12 GMT 40.109688 -3.397959 35,975 8 411 0
2019-05-23 15:57:09 GMT 40.102936 -3.399270 35,975 8 411 0
2019-05-23 15:57:06 GMT 40.096142 -3.400643 35,975 8 411 -64
2019-05-23 15:57:01 GMT 40.083023 -3.403259 35,975 8 410 -64
2019-05-23 15:56:58 GMT 40.083023 -3.403259 35,975 8 410 -64
2019-05-23 15:56:55 GMT 40.076248 -3.404663 35,975 8 410 -64
2019-05-23 15:56:51 GMT 40.070984 -3.405884 35,975 8 410 -64
2019-05-23 15:56:48 GMT 40.061600 -3.407759 35,975 8 410 -64
2019-05-23 15:56:45 GMT 40.058212 -3.408264 36,000 8 409 -64
2019-05-23 15:56:41 GMT 40.051483 -3.409607 36,000 8 409 -64
2019-05-23 15:56:35 GMT 40.039116 -3.412129 36,000 8 409 0
2019-05-23 15:56:31 GMT 40.031807 -3.413627 36,000 8 409 0
2019-05-23 15:56:24 GMT 40.010284 -3.417908 36,000 8 409 0
2019-05-23 15:56:19 GMT 40.010284 -3.417908 36,000 8 409 0
2019-05-23 15:56:13 GMT 39.998661 -3.420244 36,000 8 409 0
2019-05-23 15:56:09 GMT 39.990608 -3.421867 36,000 8 409 -64
2019-05-23 15:56:05 GMT 39.981079 -3.423767 36,000 8 409 -64
2019-05-23 15:56:02 GMT 39.975430 -3.424925 36,000 8 409 0
2019-05-23 15:55:53 GMT 39.960114 -3.427979 36,000 8 409 0
2019-05-23 15:55:49 GMT 39.954483 -3.429108 36,000 8 408 0
2019-05-23 15:55:43 GMT 39.941772 -3.431792 36,000 8 408 0
2019-05-23 15:55:39 GMT 39.934845 -3.433044 36,000 8 408 0
2019-05-23 15:55:31 GMT 39.919334 -3.436096 36,000 8 409 0
2019-05-23 15:55:28 GMT 39.914074 -3.437195 36,000 8 409 0
2019-05-23 15:55:22 GMT 39.902855 -3.439575 36,000 8 409 0
2019-05-23 15:55:17 GMT 39.894615 -3.441101 36,000 8 409 0
2019-05-23 15:55:11 GMT 39.883396 -3.443542 36,000 8 409 -64
2019-05-23 15:55:07 GMT 39.875156 -3.445007 36,000 8 409 -64
2019-05-23 15:55:01 GMT 39.862793 -3.447617 36,000 8 409 -64
2019-05-23 15:54:56 GMT 39.854908 -3.449036 36,000 8 409 0
2019-05-23 15:54:51 GMT 39.844387 -3.451111 36,000 8 409 0
2019-05-23 15:54:46 GMT 39.835403 -3.452881 36,000 8 409 0
2019-05-23 15:54:39 GMT 39.822647 -3.455444 36,000 8 409 0
2019-05-23 15:54:35 GMT 39.815151 -3.456970 36,000 8 410 0
2019-05-23 15:54:30 GMT 39.804291 -3.459141 36,000 8 410 0
2019-05-23 15:54:24 GMT 39.795273 -3.460932 36,000 8 410 -64
2019-05-23 15:54:20 GMT 39.787766 -3.462305 36,000 7 409 -64
2019-05-23 15:54:17 GMT 39.781723 -3.463321 36,000 7 409 -64
2019-05-23 15:54:14 GMT 39.776093 -3.464233 36,000 5 409 0
2019-05-23 15:54:08 GMT 39.764420 -3.465530 36,000 5 408 0
2019-05-23 15:54:04 GMT 39.756912 -3.466366 36,000 4 408 0
2019-05-23 15:54:00 GMT 39.748627 -3.467381 36,000 4 408 0
2019-05-23 15:53:57 GMT 39.743740 -3.467712 36,000 4 408 0
2019-05-23 15:53:53 GMT 39.736588 -3.468396 36,000 4 408 0
2019-05-23 15:53:47 GMT 39.724140 -3.469666 36,000 4 409 0
2019-05-23 15:53:43 GMT 39.717728 -3.470486 36,000 4 409 0
2019-05-23 15:53:40 GMT 39.710175 -3.471083 36,000 4 409 0
2019-05-23 15:53:36 GMT 39.703400 -3.471799 36,000 4 409 0
2019-05-23 15:53:32 GMT 39.697357 -3.472396 36,000 4 409 0
2019-05-23 15:53:29 GMT 39.690948 -3.473083 36,000 4 409 0
2019-05-23 15:53:24 GMT 39.679451 -3.474182 36,000 4 409 0
2019-05-23 15:53:19 GMT 39.671307 -3.475037 36,000 4 410 -64
2019-05-23 15:53:14 GMT 39.661880 -3.475979 36,000 4 410 0
2019-05-23 15:53:11 GMT 39.656570 -3.476516 36,000 4 410 0
2019-05-23 15:53:08 GMT 39.650913 -3.477295 36,000 4 410 0
2019-05-23 15:53:05 GMT 39.637665 -3.478427 36,000 4 410 0
2019-05-23 15:53:01 GMT 39.637665 -3.478427 36,000 4 410 0
2019-05-23 15:52:58 GMT 39.631969 -3.479004 36,000 4 410 0
2019-05-23 15:52:53 GMT 39.622513 -3.479979 36,000 4 410 -64
2019-05-23 15:52:50 GMT 39.617584 -3.480652 36,000 4 410 -64
2019-05-23 15:52:46 GMT 39.609249 -3.481323 36,000 4 411 -64
2019-05-23 15:52:42 GMT 39.602455 -3.481995 36,000 4 411 -64
2019-05-23 15:52:38 GMT 39.592209 -3.483024 36,000 4 411 -64
2019-05-23 15:52:32 GMT 39.583508 -3.483887 36,000 4 411 0
2019-05-23 15:52:29 GMT 39.577789 -3.484457 36,000 4 411 0
2019-05-23 15:52:26 GMT 39.572102 -3.485046 36,000 4 411 0
2019-05-23 15:52:21 GMT 39.562233 -3.486023 36,000 4 412 0
2019-05-23 15:52:18 GMT 39.557327 -3.486547 36,000 4 411 0
2019-05-23 15:52:15 GMT 39.549728 -3.487264 36,000 4 412 0
2019-05-23 15:52:11 GMT 39.542496 -3.488037 36,000 4 412 0
2019-05-23 15:52:07 GMT 39.536041 -3.488637 36,000 4 412 0
2019-05-23 15:52:03 GMT 39.527710 -3.489532 36,000 4 412 0
2019-05-23 15:52:00 GMT 39.522400 -3.490070 36,000 4 412 0
2019-05-23 15:51:56 GMT 39.507156 -3.491563 36,000 4 412 0
2019-05-23 15:51:49 GMT 39.482803 -3.493951 36,000 4 412 0
2019-05-23 15:51:40 GMT 39.482803 -3.493951 36,000 4 413 0
2019-05-23 15:51:35 GMT 39.474064 -3.494995 36,000 4 413 0
2019-05-23 15:51:31 GMT 39.466827 -3.495563 36,000 4 413 0
2019-05-23 15:51:28 GMT 39.461121 -3.496094 36,000 4 413 0
2019-05-23 15:51:24 GMT 39.453487 -3.496887 36,000 4 413 0
2019-05-23 15:51:21 GMT 39.448517 -3.497354 36,025 4 413 0
2019-05-23 15:51:17 GMT 39.441292 -3.498108 36,000 4 413 0
2019-05-23 15:51:14 GMT 39.434448 -3.498779 36,000 4 413 0
2019-05-23 15:51:08 GMT 39.424164 -3.499802 36,000 4 413 0
2019-05-23 15:51:03 GMT 39.413872 -3.500854 36,000 4 413 0
2019-05-23 15:51:00 GMT 39.408142 -3.501414 36,000 4 413 0
2019-05-23 15:50:54 GMT 39.394787 -3.502747 36,000 4 413 0
2019-05-23 15:50:50 GMT 39.376877 -3.504519 36,000 4 413 0
2019-05-23 15:50:44 GMT 39.370392 -3.505127 36,000 4 413 0
2019-05-23 15:50:40 GMT 39.370392 -3.505127 36,000 4 414 0
2019-05-23 15:50:36 GMT 39.356659 -3.506531 36,000 4 414 0
2019-05-23 15:50:28 GMT 39.346344 -3.507564 36,000 4 414 0
2019-05-23 15:50:22 GMT 39.334900 -3.508938 36,000 4 414 0
2019-05-23 15:50:16 GMT 39.324585 -3.509766 36,000 4 414 0
2019-05-23 15:50:13 GMT 39.316406 -3.510610 36,000 4 414 0
2019-05-23 15:50:10 GMT 39.304367 -3.511983 36,000 4 414 0
2019-05-23 15:50:06 GMT 39.304367 -3.511983 36,000 4 414 0
2019-05-23 15:50:02 GMT 39.289066 -3.513367 36,000 4 414 0
2019-05-23 15:49:52 GMT 39.276855 -3.514550 36,000 4 414 0
2019-05-23 15:49:48 GMT 39.271500 -3.515088 36,000 4 414 0
2019-05-23 15:49:44 GMT 39.263123 -3.515983 36,000 4 414 0
2019-05-23 15:49:40 GMT 39.255478 -3.516879 36,025 4 414 0
2019-05-23 15:49:37 GMT 39.249344 -3.517357 36,025 4 414 0
2019-05-23 15:49:33 GMT 39.241905 -3.518066 36,025 4 414 0
2019-05-23 15:49:30 GMT 39.236740 -3.518616 36,025 4 414 0
2019-05-23 15:49:27 GMT 39.230988 -3.519148 36,025 4 414 0
2019-05-23 15:49:19 GMT 39.214737 -3.520760 36,025 4 415 0
2019-05-23 15:49:12 GMT 39.201004 -3.522133 36,025 4 415 0
2019-05-23 15:49:09 GMT 39.194275 -3.522850 36,025 4 415 0
2019-05-23 15:49:02 GMT 39.182007 -3.524044 36,025 4 415 -64
2019-05-23 15:48:58 GMT 39.161179 -3.526134 36,025 4 415 0
2019-05-23 15:48:51 GMT 39.161179 -3.526134 36,025 4 415 0
2019-05-23 15:48:47 GMT 39.154110 -3.526855 36,025 4 415 0
2019-05-23 15:48:44 GMT 39.148178 -3.527388 36,025 4 415 0
2019-05-23 15:48:39 GMT 39.139160 -3.528343 36,025 4 415 0
2019-05-23 15:48:33 GMT 39.128040 -3.529419 36,025 4 415 0
2019-05-23 15:48:29 GMT 39.118870 -3.530518 36,000 4 415 0
2019-05-23 15:48:23 GMT 39.107758 -3.531507 36,000 4 415 0
2019-05-23 15:48:18 GMT 39.097641 -3.532522 36,000 4 415 0
2019-05-23 15:48:13 GMT 39.088623 -3.533418 36,000 4 415 0
2019-05-23 15:48:07 GMT 39.078278 -3.534485 36,000 4 415 0
2019-05-23 15:48:02 GMT 39.068359 -3.535461 36,000 4 415 0
2019-05-23 15:47:57 GMT 39.059143 -3.536377 36,000 4 414 64
2019-05-23 15:47:53 GMT 39.051510 -3.537109 36,000 4 414 64
2019-05-23 15:47:42 GMT 39.028793 -3.539389 36,000 4 414 0
2019-05-23 15:47:35 GMT 39.015015 -3.541300 36,000 6 415 -64
2019-05-23 15:47:31 GMT 39.008678 -3.542297 36,000 7 417 -64
2019-05-23 15:47:25 GMT 38.997231 -3.544556 36,000 9 417 -128
2019-05-23 15:47:21 GMT 38.989243 -3.546076 36,025 10 418 -64
2019-05-23 15:47:15 GMT 38.978577 -3.548703 36,025 11 418 -64
2019-05-23 15:47:10 GMT 38.968319 -3.551392 36,025 12 419 -64
2019-05-23 15:47:07 GMT 38.962269 -3.553162 36,025 12 419 -64
2019-05-23 15:47:03 GMT 38.947884 -3.557312 36,025 12 419 -64
2019-05-23 15:46:56 GMT 38.941830 -3.559082 36,025 12 419 0
2019-05-23 15:46:50 GMT 38.931610 -3.562078 36,025 12 419 0
2019-05-23 15:46:44 GMT 38.911194 -3.567989 36,025 12 419 0
2019-05-23 15:46:40 GMT 38.902863 -3.570437 36,025 12 419 0
2019-05-23 15:46:35 GMT 38.902863 -3.570437 36,025 12 419 0
2019-05-23 15:46:27 GMT 38.882401 -3.576587 36,025 12 419 0
2019-05-23 15:46:24 GMT 38.882401 -3.576587 36,025 12 420 0
2019-05-23 15:46:18 GMT 38.869537 -3.580170 36,025 12 419 0
2019-05-23 15:46:14 GMT 38.863113 -3.582031 36,025 12 419 0
2019-05-23 15:46:08 GMT 38.850960 -3.585754 36,025 12 420 0
2019-05-23 15:46:04 GMT 38.843765 -3.587693 36,025 12 420 64
2019-05-23 15:45:57 GMT 38.822193 -3.593994 36,025 12 420 64
2019-05-23 15:45:53 GMT 38.822193 -3.593994 36,025 12 420 64
2019-05-23 15:45:47 GMT 38.811172 -3.597246 36,025 12 420 64
2019-05-23 15:45:41 GMT 38.800175 -3.600586 36,000 12 420 64
2019-05-23 15:45:36 GMT 38.789200 -3.603635 36,000 12 420 64
2019-05-23 15:45:31 GMT 38.781601 -3.605844 36,000 12 420 64
2019-05-23 15:45:22 GMT 38.764938 -3.610681 35,975 12 420 64
2019-05-23 15:45:12 GMT 38.744869 -3.616699 35,975 12 420 64
2019-05-23 15:45:04 GMT 38.728947 -3.621155 35,950 12 419 0
2019-05-23 15:44:51 GMT 38.706276 -3.627869 35,950 12 418 0
2019-05-23 15:44:41 GMT 38.686630 -3.633362 35,950 12 418 0
2019-05-23 15:44:31 GMT 38.653107 -3.643043 35,950 12 417 -64
2019-05-23 15:44:23 GMT 38.653107 -3.643043 35,950 12 417 -64
2019-05-23 15:44:20 GMT 38.646877 -3.644897 35,950 12 417 -64
2019-05-23 15:44:13 GMT 38.634632 -3.648376 35,950 12 417 -64
2019-05-23 15:44:09 GMT 38.627136 -3.650696 35,950 12 417 -64
2019-05-23 15:44:03 GMT 38.614746 -3.654148 35,975 12 416 -64
2019-05-23 15:44:00 GMT 38.608330 -3.656006 35,975 12 416 -64
2019-05-23 15:43:48 GMT 38.584671 -3.663045 35,975 12 416 -64
2019-05-23 15:43:39 GMT 38.569794 -3.667165 35,975 12 416 -64
2019-05-23 15:43:28 GMT 38.548553 -3.673255 35,975 12 417 -64
2019-05-23 15:43:16 GMT 38.527100 -3.679443 36,000 12 417 -128
2019-05-23 15:43:09 GMT 38.512806 -3.683533 36,000 12 417 -64
2019-05-23 15:43:05 GMT 38.506756 -3.685303 36,000 12 418 -64
2019-05-23 15:42:59 GMT 38.494698 -3.688782 36,000 12 418 0
2019-05-23 15:42:56 GMT 38.487156 -3.690918 36,000 12 418 0
2019-05-23 15:42:50 GMT 38.478077 -3.693726 36,000 12 418 -64
2019-05-23 15:42:44 GMT 38.466385 -3.696959 36,000 12 419 0
2019-05-23 15:42:40 GMT 38.458786 -3.699109 36,000 12 419 0
2019-05-23 15:42:34 GMT 38.447433 -3.702572 36,000 12 420 0
2019-05-23 15:42:28 GMT 38.436035 -3.705856 36,000 12 421 0
2019-05-23 15:42:24 GMT 38.426147 -3.708722 36,000 12 422 0
2019-05-23 15:42:17 GMT 38.416214 -3.711528 36,000 12 423 0
2019-05-23 15:42:12 GMT 38.405922 -3.714334 36,000 12 423 0
2019-05-23 15:42:07 GMT 38.395615 -3.717470 36,000 12 422 0
2019-05-23 15:41:59 GMT 38.375431 -3.723111 36,000 12 422 0
2019-05-23 15:41:53 GMT 38.369938 -3.724664 36,000 12 421 0
2019-05-23 15:41:48 GMT 38.359818 -3.727579 36,000 12 421 0
2019-05-23 15:41:40 GMT 38.344666 -3.731904 36,000 12 420 -64
2019-05-23 15:41:30 GMT 38.323849 -3.737859 36,000 12 418 0
2019-05-23 15:41:27 GMT 38.320450 -3.738858 36,000 12 417 0
2019-05-23 15:41:18 GMT 38.302761 -3.743950 36,000 12 417 0
2019-05-23 15:41:11 GMT 38.290707 -3.747532 36,000 12 417 0
2019-05-23 15:41:07 GMT 38.282822 -3.749669 36,000 12 417 0
2019-05-23 15:41:00 GMT 38.270050 -3.753350 36,000 12 417 0
2019-05-23 15:40:55 GMT 38.260254 -3.756155 36,000 12 417 64
2019-05-23 15:40:51 GMT 38.250065 -3.759056 36,000 12 418 128
2019-05-23 15:40:42 GMT 38.236084 -3.762993 35,975 12 419 192
2019-05-23 15:40:34 GMT 38.220551 -3.767415 35,925 12 422 1280
2019-05-23 15:40:29 GMT 38.210541 -3.770400 35,875 12 420 1024
2019-05-23 15:40:23 GMT 38.199322 -3.773684 35,750 12 420 1408
2019-05-23 15:40:17 GMT 38.188339 -3.776842 35,625 12 422 1280
2019-05-23 15:40:14 GMT 38.173489 -3.780909 35,475 12 422 896
2019-05-23 15:40:04 GMT 38.163570 -3.783775 35,350 12 422 896
2019-05-23 15:40:01 GMT 38.157475 -3.785686 35,350 12 422 832
2019-05-23 15:39:56 GMT 38.145836 -3.788790 35,250 12 422 832
2019-05-23 15:39:51 GMT 38.137985 -3.791101 35,200 12 422 832
2019-05-23 15:39:44 GMT 38.125809 -3.794549 35,100 12 422 896
2019-05-23 15:39:39 GMT 38.115921 -3.797413 35,025 12 422 960
2019-05-23 15:39:31 GMT 38.099167 -3.802146 34,850 12 422 1280
2019-05-23 15:39:24 GMT 38.086166 -3.805828 34,700 12 423 1408
2019-05-23 15:39:20 GMT 38.079300 -3.807990 34,625 12 424 1408
2019-05-23 15:39:14 GMT 38.065521 -3.811730 34,475 12 424 1152
2019-05-23 15:39:09 GMT 38.058224 -3.813808 34,400 12 425 1088
2019-05-23 15:38:58 GMT 38.037872 -3.819619 34,175 12 425 1216
2019-05-23 15:38:47 GMT 38.015209 -3.825989 34,000 12 426 1088
2019-05-23 15:38:37 GMT 37.996727 -3.831243 33,800 12 425 832
2019-05-23 15:38:33 GMT 37.989441 -3.833469 33,725 12 425 832
2019-05-23 15:38:27 GMT 37.976395 -3.837150 33,650 12 424 960
2019-05-23 15:38:23 GMT 37.970470 -3.838587 33,600 12 424 960
2019-05-23 15:38:18 GMT 37.959160 -3.841871 33,500 12 424 1216
2019-05-23 15:38:12 GMT 37.949200 -3.844677 33,375 12 424 1472
2019-05-23 15:38:07 GMT 37.939636 -3.847377 33,300 12 424 1472
2019-05-23 15:38:02 GMT 37.930435 -3.850007 33,150 12 425 1472
2019-05-23 15:37:55 GMT 37.916939 -3.853992 32,975 12 426 1600
2019-05-23 15:37:52 GMT 37.911537 -3.855365 32,900 12 427 1600
2019-05-23 15:37:40 GMT 37.887424 -3.862112 32,575 12 429 1280
2019-05-23 15:37:32 GMT 37.870926 -3.866778 32,325 12 429 1408
2019-05-23 15:37:20 GMT 37.841801 -3.875009 32,050 12 430 1472
2019-05-23 15:37:12 GMT 37.832493 -3.877696 31,925 12 430 1472
2019-05-23 15:37:09 GMT 37.827045 -3.879368 31,850 12 431 1536
2019-05-23 15:37:03 GMT 37.816105 -3.882294 31,725 12 432 1728
2019-05-23 15:36:59 GMT 37.806976 -3.884894 31,575 12 433 1920
2019-05-23 15:36:48 GMT 37.785004 -3.891322 31,200 12 436 2112
2019-05-23 15:36:42 GMT 37.775280 -3.893937 31,025 12 438 1920
2019-05-23 15:36:37 GMT 37.761780 -3.897758 30,825 12 440 1728
2019-05-23 15:36:31 GMT 37.752235 -3.900624 30,700 12 441 1664
2019-05-23 15:36:26 GMT 37.739685 -3.904003 30,525 12 441 1472
2019-05-23 15:36:21 GMT 37.732498 -3.905990 30,450 12 442 1280
2019-05-23 15:36:18 GMT 37.726540 -3.907670 30,375 12 442 1216
2019-05-23 15:36:15 GMT 37.713131 -3.911551 30,225 12 442 1344
2019-05-23 15:36:11 GMT 37.707500 -3.913103 30,175 12 442 1344
2019-05-23 15:36:03 GMT 37.695351 -3.916686 30,050 12 442 1280
2019-05-23 15:35:57 GMT 37.684177 -3.919671 29,925 12 442 1088
2019-05-23 15:35:53 GMT 37.675564 -3.922119 29,850 12 441 896
2019-05-23 15:35:46 GMT 37.662621 -3.925702 29,750 12 440 960
2019-05-23 15:35:41 GMT 37.652473 -3.928627 29,675 12 439 896
2019-05-23 15:35:35 GMT 37.640808 -3.931878 29,600 12 437 832
2019-05-23 15:35:29 GMT 37.628952 -3.935209 29,525 12 436 1024
2019-05-23 15:35:25 GMT 37.620678 -3.937524 29,450 12 436 1024
2019-05-23 15:35:14 GMT 37.597458 -3.944092 29,225 12 434 1216
2019-05-23 15:35:08 GMT 37.587860 -3.946838 29,000 12 434 1216
2019-05-23 15:35:04 GMT 37.580383 -3.948942 29,050 12 433 1216
2019-05-23 15:34:59 GMT 37.566677 -3.952809 28,925 12 433 1280
2019-05-23 15:34:54 GMT 37.560837 -3.954435 28,850 12 432 1472
2019-05-23 15:34:49 GMT 37.549118 -3.957708 28,700 12 432 1600
2019-05-23 15:34:44 GMT 37.538773 -3.960630 28,575 12 432 1600
2019-05-23 15:34:39 GMT 37.529949 -3.963139 28,450 12 432 1664
2019-05-23 15:34:33 GMT 37.518822 -3.966423 28,300 12 433 1600
2019-05-23 15:34:28 GMT 37.509064 -3.969045 28,125 12 432 1344
2019-05-23 15:34:24 GMT 37.500641 -3.971616 28,075 12 432 1344
2019-05-23 15:34:17 GMT 37.488518 -3.974901 27,950 12 432 1408
2019-05-23 15:34:13 GMT 37.479538 -3.977401 27,825 12 431 1408
2019-05-23 15:34:07 GMT 37.468872 -3.980454 27,700 13 431 1408
2019-05-23 15:34:01 GMT 37.457611 -3.984063 27,575 14 431 1536
2019-05-23 15:33:57 GMT 37.449097 -3.986985 27,450 16 433 1792
2019-05-23 15:33:52 GMT 37.439117 -3.990959 27,300 17 434 1664
2019-05-23 15:33:47 GMT 37.429024 -3.995322 27,150 19 436 1536
2019-05-23 15:33:44 GMT 37.423672 -3.997770 27,100 21 436 1536
2019-05-23 15:33:41 GMT 37.418407 -4.000277 27,025 21 436 1536
2019-05-23 15:33:37 GMT 37.409775 -4.004575 26,900 22 436 1600
2019-05-23 15:33:31 GMT 37.400024 -4.009484 26,775 21 436 1600
2019-05-23 15:33:26 GMT 37.390274 -4.014568 26,625 21 436 1600
2019-05-23 15:33:23 GMT 37.385193 -4.017081 26,550 21 435 1664
2019-05-23 15:33:20 GMT 37.380142 -4.019503 26,475 21 435 1664
2019-05-23 15:33:16 GMT 37.370041 -4.024619 26,350 21 435 1728
2019-05-23 15:33:10 GMT 37.360683 -4.029355 26,200 21 435 1664
2019-05-23 15:33:05 GMT 37.349464 -4.035028 26,050 21 435 1472
2019-05-23 15:32:59 GMT 37.340527 -4.039565 25,925 22 434 1344
2019-05-23 15:32:54 GMT 37.330101 -4.044820 25,800 21 433 1472
2019-05-23 15:32:49 GMT 37.322094 -4.049178 25,700 21 432 1472
2019-05-23 15:32:45 GMT 37.312820 -4.053663 25,575 21 432 1472
2019-05-23 15:32:41 GMT 37.305569 -4.057239 25,500 22 431 1408
2019-05-23 15:32:38 GMT 37.300781 -4.059682 25,425 21 431 1408
2019-05-23 15:32:35 GMT 37.294281 -4.063188 25,350 21 430 1536
2019-05-23 15:32:29 GMT 37.283752 -4.068272 25,250 21 430 1600
2019-05-23 15:32:18 GMT 37.264229 -4.078316 24,925 21 428 1728
2019-05-23 15:32:10 GMT 37.248028 -4.086257 24,675 21 428 1344
2019-05-23 15:32:04 GMT 37.235184 -4.092933 24,525 21 425 1088
2019-05-23 15:32:00 GMT 37.229462 -4.095680 24,475 21 424 1024
2019-05-23 15:31:56 GMT 37.223820 -4.098438 24,425 21 423 1216
2019-05-23 15:31:52 GMT 37.216919 -4.101933 24,350 21 422 1472
2019-05-23 15:31:49 GMT 37.210739 -4.105006 24,275 22 421 1792
2019-05-23 15:31:45 GMT 37.204224 -4.108290 24,150 22 421 2112
2019-05-23 15:31:42 GMT 37.198448 -4.111394 24,050 22 421 2368
2019-05-23 15:31:39 GMT 37.191933 -4.114738 23,925 22 423 2496
2019-05-23 15:31:35 GMT 37.185013 -4.118061 23,750 22 423 2432
2019-05-23 15:31:28 GMT 37.173172 -4.124291 23,525 21 424 2048
2019-05-23 15:31:24 GMT 37.166061 -4.127762 23,400 21 424 1920
2019-05-23 15:31:18 GMT 37.154922 -4.133307 23,200 21 424 1856
2019-05-23 15:31:14 GMT 37.147110 -4.137112 23,075 21 424 1792
2019-05-23 15:31:08 GMT 37.135792 -4.142801 22,900 21 423 1600
2019-05-23 15:31:03 GMT 37.127609 -4.146988 22,775 21 422 1536
2019-05-23 15:31:00 GMT 37.115494 -4.153190 22,625 21 420 1344
2019-05-23 15:30:53 GMT 37.108276 -4.156653 22,550 21 419 1408
2019-05-23 15:30:47 GMT 37.097809 -4.161831 22,400 21 418 1536
2019-05-23 15:30:42 GMT 37.090118 -4.165805 22,275 22 416 1600
2019-05-23 15:30:38 GMT 37.082581 -4.169610 22,175 21 415 1664
2019-05-23 15:30:35 GMT 37.076900 -4.172476 22,100 21 415 1600
2019-05-23 15:30:31 GMT 37.070114 -4.175857 22,000 21 413 1536
2019-05-23 15:30:28 GMT 37.064438 -4.178720 21,875 21 412 1600
2019-05-23 15:30:25 GMT 37.059120 -4.181373 21,850 21 411 1664
2019-05-23 15:30:21 GMT 37.052044 -4.184895 21,725 22 410 1664
2019-05-23 15:30:15 GMT 37.041290 -4.190209 21,575 21 409 1728
2019-05-23 15:30:11 GMT 37.033905 -4.193914 21,450 21 408 1792
2019-05-23 15:30:08 GMT 37.027416 -4.197434 21,350 21 407 1920
2019-05-23 15:30:04 GMT 37.022530 -4.199763 21,250 21 407 1984
2019-05-23 15:30:00 GMT 37.015545 -4.203286 21,125 21 407 2048
2019-05-23 15:29:55 GMT 36.997696 -4.212205 20,900 21 406 2240
2019-05-23 15:29:50 GMT 36.997696 -4.212205 20,775 21 406 2368
2019-05-23 15:29:45 GMT 36.989712 -4.216183 20,400 21 406 2240
2019-05-23 15:29:39 GMT 36.977840 -4.222153 20,350 21 406 2176
2019-05-23 15:29:36 GMT 36.971554 -4.225437 20,225 21 405 1984
2019-05-23 15:29:29 GMT 36.960381 -4.230871 20,000 21 403 1984
2019-05-23 15:29:23 GMT 36.950653 -4.235707 19,825 21 402 1984
2019-05-23 15:29:18 GMT 36.942368 -4.239827 19,675 21 401 1984
2019-05-23 15:29:15 GMT 36.934776 -4.243589 19,525 21 400 2048
2019-05-23 15:29:08 GMT 36.924442 -4.248724 19,325 21 399 2176
2019-05-23 15:29:04 GMT 36.917267 -4.252352 18,900 21 397 2048
2019-05-23 15:28:57 GMT 36.906662 -4.257620 18,975 21 397 2048
2019-05-23 15:28:52 GMT 36.897400 -4.262228 18,800 21 396 2112
2019-05-23 15:28:47 GMT 36.888565 -4.266669 18,675 21 395 2240
2019-05-23 15:28:41 GMT 36.877716 -4.272045 18,375 21 395 2304
2019-05-23 15:28:36 GMT 36.870255 -4.275610 18,300 21 394 2176
2019-05-23 15:28:32 GMT 36.861465 -4.280168 18,050 21 392 2048
2019-05-23 15:28:25 GMT 36.852333 -4.284728 17,850 21 391 2304
2019-05-23 15:28:21 GMT 36.844933 -4.288408 17,700 21 390 2496
2019-05-23 15:28:18 GMT 36.838928 -4.291388 17,550 21 389 2560
2019-05-23 15:28:15 GMT 36.835064 -4.293434 17,450 21 389 2560
2019-05-23 15:28:10 GMT 36.826492 -4.297600 17,250 21 389 2496
2019-05-23 15:28:07 GMT 36.820770 -4.300446 17,125 21 389 2560
2019-05-23 15:28:04 GMT 36.817108 -4.302292 17,025 21 389 2560
2019-05-23 15:28:01 GMT 36.811707 -4.304810 16,875 21 389 2688
2019-05-23 15:27:54 GMT 36.800148 -4.310848 16,600 21 389 2496
2019-05-23 15:27:51 GMT 36.793957 -4.313887 16,450 21 389 2368
2019-05-23 15:27:47 GMT 36.786942 -4.317341 16,300 21 389 2560
2019-05-23 15:27:44 GMT 36.782600 -4.319555 16,175 21 389 2560
2019-05-23 15:27:39 GMT 36.774593 -4.323529 15,975 21 387 2048
2019-05-23 15:27:36 GMT 36.768906 -4.326382 15,875 21 386 1856
2019-05-23 15:27:30 GMT 36.759155 -4.331303 15,725 21 381 1536
2019-05-23 15:27:25 GMT 36.751236 -4.335251 15,600 21 379 1664
2019-05-23 15:27:22 GMT 36.747345 -4.337196 15,550 21 377 1664
2019-05-23 15:27:19 GMT 36.742126 -4.339771 15,450 21 376 1728
2019-05-23 15:27:12 GMT 36.731140 -4.345264 15,250 21 373 2176
2019-05-23 15:27:09 GMT 36.724091 -4.348755 14,825 23 370 2560
2019-05-23 15:27:02 GMT 36.714340 -4.353504 14,850 21 370 2560
2019-05-23 15:26:58 GMT 36.707695 -4.356663 14,675 21 369 2752
2019-05-23 15:26:54 GMT 36.701019 -4.360142 14,500 21 369 2944
2019-05-23 15:26:51 GMT 36.697689 -4.361864 14,375 21 369 2944
2019-05-23 15:26:48 GMT 36.691963 -4.364553 14,300 21 369 2944
2019-05-23 15:26:44 GMT 36.686283 -4.367650 14,050 23 370 2560
2019-05-23 15:26:40 GMT 36.675385 -4.374161 13,775 27 368 2304
2019-05-23 15:26:34 GMT 36.670532 -4.377308 13,650 28 369 2112
2019-05-23 15:26:31 GMT 36.665771 -4.380627 13,550 30 368 1920
2019-05-23 15:26:27 GMT 36.659363 -4.385319 13,425 31 366 1600
2019-05-23 15:26:23 GMT 36.655186 -4.388629 13,350 31 363 1280
2019-05-23 15:26:19 GMT 36.648422 -4.393730 13,250 31 358 1088
2019-05-23 15:26:15 GMT 36.642929 -4.397850 13,200 31 356 1024
2019-05-23 15:26:09 GMT 36.634285 -4.404349 13,075 31 348 1088
2019-05-23 15:26:06 GMT 36.629608 -4.407864 13,025 31 344 1088
2019-05-23 15:25:58 GMT 36.619621 -4.415277 12,900 31 336 1088
2019-05-23 15:25:55 GMT 36.615894 -4.418257 12,850 31 332 1152
2019-05-23 15:25:48 GMT 36.606724 -4.425445 12,725 31 326 1216
2019-05-23 15:25:44 GMT 36.601730 -4.429035 12,650 32 319 1152
2019-05-23 15:25:36 GMT 36.592247 -4.436548 12,525 32 313 1152
2019-05-23 15:25:33 GMT 36.588848 -4.439236 12,450 32 306 1280
2019-05-23 15:25:27 GMT 36.580948 -4.445286 12,300 31 299 1408
2019-05-23 15:25:22 GMT 36.575775 -4.449120 12,200 29 291 1472
2019-05-23 15:25:17 GMT 36.569183 -4.453526 12,075 27 286 1600
2019-05-23 15:25:11 GMT 36.562778 -4.457294 11,925 22 280 1920
2019-05-23 15:25:05 GMT 36.554958 -4.459923 11,700 9 272 3008
2019-05-23 15:25:02 GMT 36.550304 -4.460332 11,525 4 269 3072
2019-05-23 15:24:55 GMT 36.537689 -4.457989 11,025 342 264 2816
2019-05-23 15:24:45 GMT 36.531635 -4.454489 10,725 327 259 2560
2019-05-23 15:24:42 GMT 36.527023 -4.450550 10,600 321 257 2624
2019-05-23 15:24:35 GMT 36.521667 -4.443340 10,300 307 252 2816
2019-05-23 15:24:30 GMT 36.519112 -4.438126 10,125 300 251 3072
2019-05-23 15:24:24 GMT 36.516319 -4.430354 9,800 290 249 3584
2019-05-23 15:24:21 GMT 36.515121 -4.424400 9,550 283 250 3840
2019-05-23 15:24:15 GMT 36.514271 -4.417439 8,950 268 254 3648
2019-05-23 15:24:12 GMT 36.514389 -4.414215 8,950 268 254 3648
2019-05-23 15:24:09 GMT 36.514786 -4.409258 8,925 262 255 3392
2019-05-23 15:24:03 GMT 36.516724 -4.400997 8,625 249 255 2816
2019-05-23 15:24:00 GMT 36.518742 -4.395349 8,450 241 255 2816
2019-05-23 15:23:53 GMT 36.523224 -4.388237 8,150 219 253 3712
2019-05-23 15:23:49 GMT 36.526978 -4.383659 7,900 223 252 3648
2019-05-23 15:23:41 GMT 36.533752 -4.377708 7,450 209 254 3712
2019-05-23 15:23:38 GMT 36.537037 -4.375890 7,275 206 254 3712
2019-05-23 15:23:32 GMT 36.543552 -4.373085 6,925 193 255 3520
2019-05-23 15:23:28 GMT 36.549088 -4.372158 6,675 183 256 3392
2019-05-23 15:23:22 GMT 36.556229 -4.372559 6,325 173 256 3456
2019-05-23 15:23:15 GMT 36.563507 -4.374733 5,975 165 256 3840
2019-05-23 15:23:12 GMT 36.568367 -4.376825 5,675 155 257 4352
2019-05-23 15:23:07 GMT 36.573765 -4.380681 5,325 150 259 4544
2019-05-23 15:23:00 GMT 36.579346 -4.385605 4,875 140 262 4544
2019-05-23 15:22:57 GMT 36.583740 -4.390640 4,550 135 265 4288
2019-05-23 15:22:50 GMT 36.588428 -4.396460 4,200 134 266 3392
2019-05-23 15:22:45 GMT 36.592758 -4.401855 3,925 134 264 3392
2019-05-23 15:22:40 GMT 36.597042 -4.407271 3,650 134 262 3264
2019-05-23 15:22:35 GMT 36.602142 -4.413872 3,325 134 258 3264
2019-05-23 15:22:30 GMT 36.605713 -4.418049 3,225 134 257 3264
2019-05-23 15:22:25 GMT 36.610016 -4.423485 2,875 134 253 2816
2019-05-23 15:22:20 GMT 36.614273 -4.428864 2,650 134 249 2368
2019-05-23 15:22:12 GMT 36.620773 -4.437103 2,350 134 241 1856
2019-05-23 15:22:04 GMT 36.626369 -4.444203 2,150 134 226 1792
2019-05-23 15:21:58 GMT 36.630020 -4.448833 2,000 134 219 1152
2019-05-23 15:21:53 GMT 36.637077 -4.457995 1,875 134 202 1408
2019-05-23 15:21:48 GMT 36.637077 -4.457995 1,825 134 200 1408
2019-05-23 15:21:43 GMT 36.641079 -4.462845 1,700 134 193 1344
2019-05-23 15:21:37 GMT 36.644211 -4.466572 1,600 135 185 1216
2019-05-23 15:21:32 GMT 36.647186 -4.470406 1,500 135 178 1088
2019-05-23 15:21:27 GMT 36.650024 -4.473782 1,425 136 171 704
2019-05-23 15:21:16 GMT 36.656250 -4.479961 1,275 147 154 1472
2019-05-23 15:21:02 GMT 36.664635 -4.486396 800 147 149 2432
2019-05-23 15:20:47 GMT 36.672318 -4.495395 250 131 147 2432
2019-05-23 15:20:44 GMT 36.673691 -4.497299 125 132 145
2019-05-23 15:20:35 GMT 36.677753 -4.503050 0 132 135
2019-05-23 15:20:23 GMT 36.681656 -4.508400 0 132 88
2019-05-23 15:20:08 GMT 36.683853 -4.511619 0 132 18
2019-05-23 15:20:03 GMT 36.683990 -4.511802 0 132 4
2019-05-23 15:19:53 GMT 36.684002 -4.511816 0 132 0
2019-05-23 15:19:42 GMT 36.684071 -4.512105 0 132 8
2019-05-23 15:19:29 GMT 36.684551 -4.512148 0 182 13
2019-05-23 15:19:21 GMT 36.685001 -4.512094 0 199 11
2019-05-23 15:19:10 GMT 36.685307 -4.511876 0 222 4
2019-05-23 15:18:50 GMT 36.685341 -4.511845 0 222 0
2019-05-23 15:18:45 GMT 36.685341 -4.511847 0 222 0
2019-05-23 15:18:35 GMT 36.685341 -4.511831 0 222 0
2019-05-23 15:18:25 GMT 36.685341 -4.511845 0 222 0
2019-05-23 15:18:15 GMT 36.685341 -4.511833 0 222 0
2019-05-23 15:18:05 GMT 36.685341 -4.511831 0 222 0
2019-05-23 15:17:55 GMT 36.685341 -4.511833 0 222 0
2019-05-23 15:17:45 GMT 36.685341 -4.511831 0 222 0
2019-05-23 15:17:35 GMT 36.685341 -4.511833 0 222 0
2019-05-23 15:17:25 GMT 36.685341 -4.511831 0 222 0
2019-05-23 15:17:15 GMT 36.685341 -4.511833 0 222 0
2019-05-23 15:17:04 GMT 36.685341 -4.511831 0 222 0
2019-05-23 15:16:52 GMT 36.685341 -4.511833 0 222 0
2019-05-23 15:16:44 GMT 36.685352 -4.511819 0 222 2
2019-05-23 15:16:33 GMT 36.685444 -4.511733 0 222 4
2019-05-23 15:16:23 GMT 36.685604 -4.511547 0 227 6
2019-05-23 15:16:12 GMT 36.685799 -4.510946 0 272 10
2019-05-23 15:16:02 GMT 36.685661 -4.510674 0 312 10
2019-05-23 15:15:40 GMT 36.684830 -4.510019 0 317 12
2019-05-23 15:15:31 GMT 36.684456 -4.509552 0 312 11
2019-05-23 15:15:17 GMT 36.683979 -4.508865 0 309 12
2019-05-23 15:15:06 GMT 36.683372 -4.508091 0 312 18
2019-05-23 15:14:54 GMT 36.682571 -4.506937 0 312 23
2019-05-23 15:14:49 GMT 36.682209 -4.506615 0 312 22
2019-05-23 15:14:37 GMT 36.681618 -4.505549 0 312 20
2019-05-23 15:14:27 GMT 36.680843 -4.504538 0 312 22
2019-05-23 15:14:17 GMT 36.680347 -4.503606 0 312 20
2019-05-23 15:14:05 GMT 36.679722 -4.502749 0 312 20
2019-05-23 15:13:56 GMT 36.679184 -4.502149 0 312 19

Making use of Plane Finder data

You are free to use the raw flight data, aircraft information and images provided in this report for your own purposes provided the data is correctly attributed to Plane Finder. We ask that you please credit Plane Finder and link to planefinder.net in close proximity to the content.

Optionally one of the following logos (no smaller then 150x24px) can be used and must link to planefinder.net

Embedding the Plane Finder map

You are welcome to embed the Plane Finder playback map on your website to offer visitors a more interactive experience. We suggest using the following HTML code:

<iframe src="//planefinder.net/data/report/BA455-G-EUYL-7700-squawk-2019-05-23/map" width="800" height="600" seamless="seamless"></iframe>

Where our data comes from

Plane Finder has a global network of data feeds and antenna radars that receive data broadcast directly from aircraft. The primary technologies used are ADS-B and MLAT. We also show feeds from the FAA and a FLARM glider feed.

Click here to find out more about the Plane Finder network.

How we collect our data